PostFrontal Forum
PostFrontal Forum
LK8000_Support_Forum | Profile | Register | Active Topics | Members | Search | FAQ
Username:
Password:
Save Password
Forgot your Password?

 All Forums
 LK8000 International Support
 BUG reporting and solved list
 GPS: NO VALID FIX false message. 7.4.5 android 14
 New Topic  Reply to Topic
Author Previous Topic Topic Next Topic  

Rogerwii
Pulcino

France
39 Posts

Posted - 29/03/2024 :  11:19:47  Show Profile  Reply with Quote
Hello, I'm trying to use lk8000 on a Samsung S24 and I get this message when using internal GPS. The position and speed look good however. I've read this issue occured on other types of phones but it was working fine on my previous Xiaomi chinese phone



I've tried to change serial mode from normal to polling and device type from internal to generic or even specific types like Nokia but no joy..

Any ideas? Thanks in advance!

HG Sport 3

brunotl
Pterodattilo

France
1111 Posts

Posted - 29/03/2024 :  17:30:30  Show Profile  Reply with Quote
can you make a capture a NEMA log and send it yo me ?
Go to Top of Page

Rogerwii
Pulcino

France
39 Posts

Posted - 30/03/2024 :  17:12:07  Show Profile  Reply with Quote

HG Sport 3
Go to Top of Page

brunotl
Pterodattilo

France
1111 Posts

Posted - 31/03/2024 :  18:52:47  Show Profile  Reply with Quote
to make nmea log : Menu -> "Config 2/3" -> "NMEA Logger"

file is in logger directory
Go to Top of Page

Rogerwii
Pulcino

France
39 Posts

Posted - 02/04/2024 :  10:54:19  Show Profile  Reply with Quote
oops ok, thanks for your help!

$GPGSV,3,1,10,06,15,040,35,11,29,077,46,12,56,062,43,24,23,143,39,1*66
$GPGSV,3,2,10,25,75,344,41,28,34,310,40,29,49,207,42,31,07,312,28,1*66
$GPGSV,3,3,10,32,36,259,41,36,00,000,44,1*6F
$GPGSV,2,1,06,06,15,040,26,11,29,077,38,24,23,143,28,25,75,344,28,8*6D
$GPGSV,2,2,06,28,34,310,32,32,36,259,29,8*64
$GLGSV,3,1,09,10,24,096,35,02,24,296,36,22,18,174,37,12,30,307,43,1*7D
$GLGSV,3,2,09,11,65,033,43,01,14,245,38,20,34,039,31,21,56,126,43,1*77
$GLGSV,3,3,09,03,08,345,29,1*43
$GAGSV,3,1,10,03,10,327,25,05,36,280,36,09,29,216,40,10,03,170,26,7*7F
$GAGSV,3,2,10,12,17,152,34,24,53,289,41,25,05,271,24,26,19,043,32,7*7B
$GAGSV,3,3,10,31,64,054,40,33,35,095,43,7*7A
$GAGSV,2,1,08,03,10,327,17,05,36,280,25,09,29,216,32,12,17,152,26,1*70
$GAGSV,2,2,08,24,53,289,23,26,19,043,27,31,64,054,30,33,35,095,31,1*7B
$GBGSV,4,1,14,60,04,101,31,46,29,300,39,43,34,052,40,38,07,062,40,1*79
$GBGSV,4,2,14,37,82,004,42,28,57,146,41,27,22,190,45,23,36,109,45,1*76
$GBGSV,4,3,14,20,08,251,37,19,11,297,33,13,05,087,35,11,15,038,33,1*79
$GBGSV,4,4,14,10,07,061,37,05,17,120,33,1*76
$GBGSV,3,1,09,19,11,297,31,20,08,251,33,23,36,109,43,27,22,190,44,3*73
$GBGSV,3,2,09,28,57,146,38,37,82,004,40,38,07,062,38,43,34,052,39,3*7C
$GBGSV,3,3,09,46,29,300,40,3*43
$GBGSV,3,1,09,19,11,297,22,20,08,251,21,23,36,109,31,27,22,190,30,5*72
$GBGSV,3,2,09,28,57,146,30,37,82,004,28,38,07,062,32,43,34,052,23,5*7D
$GBGSV,3,3,09,46,29,300,27,5*44
$GNGSA,A,3,06,11,12,24,25,28,29,31,32,,,,0.5,0.3,0.4,1*35
$PSSGR,GSA,A,3,06,11,24,25,28,32,,,,,,,0.5,0.3,0.4,1,8*4B
$GNGSA,A,3,65,66,67,74,75,76,84,85,86,,,,0.5,0.3,0.4,2*3D
$GNGSA,A,3,03,05,09,12,24,26,31,33,,,,,0.5,0.3,0.4,3*3D
$PSSGR,GSA,A,3,305,309,312,324,326,331,333,,,,,,0.5,0.3,0.4,3,1*70
$GNGSA,A,3,05,10,11,19,20,23,27,28,37,38,43,46,0.5,0.3,0.4,4*3C
$PSSGR,GSA,A,3,219,220,223,227,228,237,238,243,246,,,,0.5,0.3,0.4,4,5*73
$GNVTG,196.2,T,193.2,M,3.0,N,5.5,K,E*3F
$GNDTM,W84,,0000.000000,N,00000.000000,E,0.000,W84*41
$GNRMC,084947.00,A,4338.386876,N,00701.859343,E,3.0,196.2,020424,3.0,E,E,V*51
$GNGNS,084947.00,4338.386876,N,00701.859343,E,EEEEEE,38,0.3,197.0,49.7,,,V*27
$GNGGA,084947.00,4338.386876,N,00701.859343,E,6,12,0.3,197.0,M,49.7,M,,*78
$PSMSG,magcal=PASS,bluesky=0*00
$GPGSV,3,1,10,06,15,040,35,11,29,077,43,12,56,062,42,24,23,143,40,1*6C
$GPGSV,3,2,10,25,75,344,39,28,34,310,39,29,49,207,38,31,07,312,26,1*64
$GPGSV,3,3,10,32,36,259,41,36,00,000,40,1*6B
$GPGSV,2,1,06,06,15,040,30,11,29,077,38,24,23,143,27,25,75,344,23,8*6E
$GPGSV,2,2,06,28,34,310,28,32,36,259,31,8*66
$GLGSV,3,1,09,10,24,096,31,02,24,296,38,22,18,174,33,12,30,307,37,1*70
$GLGSV,3,2,09,11,65,033,40,01,14,245,34,20,34,039,29,21,56,126,46,1*74
$GLGSV,3,3,09,03,08,345,27,1*4D
$GAGSV,3,1,10,03,10,327,26,05,36,280,36,09,29,216,40,10,03,170,27,7*7D
$GAGSV,3,2,10,12,17,152,35,24,53,289,38,25,05,271,25,26,19,043,32,7*75
$GAGSV,3,3,10,31,64,054,37,33,35,095,39,7*77
$GAGSV,2,1,08,03,10,327,17,05,36,280,22,09,29,216,31,12,17,152,26,1*74
$GAGSV,2,2,08,24,53,289,27,26,19,043,30,31,64,054,30,33,35,095,25,1*7C
$GBGSV,4,1,14,60,04,101,31,46,29,300,38,43,34,052,41,38,07,062,38,1*76
$GBGSV,4,2,14,37,82,004,40,28,57,146,41,27,22,190,45,23,36,109,45,1*74
$GBGSV,4,3,14,20,08,251,36,19,11,297,32,13,05,087,39,11,15,038,35,1*73
$GBGSV,4,4,14,10,07,061,36,05,17,120,35,1*71
$GBGSV,3,1,09,19,11,297,32,20,08,251,32,23,36,109,44,27,22,190,43,3*71
$GBGSV,3,2,09,28,57,146,43,37,82,004,40,38,07,062,38,43,34,052,40,3*7E
$GBGSV,3,3,09,46,29,300,37,3*43
$GBGSV,3,1,09,19,11,297,22,20,08,251,25,23,36,109,33,27,22,190,31,5*75
$GBGSV,3,2,09,28,57,146,30,37,82,004,29,38,07,062,30,43,34,052,23,5*7E
$GBGSV,3,3,09,46,29,300,24,5*47
$GNGSA,A,3,06,11,12,24,25,28,29,31,32,,,,0.5,0.3,0.4,1*35
$PSSGR,GSA,A,3,06,11,24,25,28,32,,,,,,,0.5,0.3,0.4,1,8*4B
$GNGSA,A,3,65,66,67,74,75,76,84,85,86,,,,0.5,0.3,0.4,2*3D
$GNGSA,A,3,03,05,09,12,24,26,31,33,,,,,0.5,0.3,0.4,3*3D
$PSSGR,GSA,A,3,305,309,312,324,326,331,333,,,,,,0.5,0.3,0.4,3,1*70
$GNGSA,A,3,05,10,11,19,20,23,27,28,37,38,43,46,0.5,0.3,0.4,4*3C
$PSSGR,GSA,A,3,219,220,223,227,228,237,238,243,246,,,,0.5,0.3,0.4,4,5*73
$GNVTG,196.1,T,193.1,M,2.9,N,5.3,K,E*31
$GNDTM,W84,,0000.000000,N,00000.000000,E,0.000,W84*41
$GNRMC,084948.00,A,4338.386058,N,00701.859063,E,2.9,196.1,020424,3.0,E,E,V*50
$GNGNS,084948.00,4338.386058,N,00701.859063,E,EEEEEE,38,0.3,197.1,49.7,,,V*2C
$GNGGA,084948.00,4338.386058,N,00701.859063,E,6,12,0.3,197.1,M,49.7,M,,*73
$PSMSG,magcal=PASS,bluesky=0*00
$GPGSV,3,1,10,06,15,040,37,11,29,077,44,12,56,062,43,24,23,143,42,1*6A
$GPGSV,3,2,10,25,75,344,38,28,34,310,38,29,49,207,41,31,07,312,30,1*6D
$GPGSV,3,3,10,32,36,259,41,36,00,000,36,1*6A
$GPGSV,2,1,06,06,15,040,31,11,29,077,37,24,23,143,29,25,75,344,26,8*6B
$GPGSV,2,2,06,28,34,310,26,32,36,259,33,8*6A
$GLGSV,3,1,09,10,24,096,34,02,24,296,37,22,18,174,34,12,30,307,36,1*7C
$GLGSV,3,2,09,11,65,033,36,01,14,245,38,20,34,039,28,21,56,126,46,1*78
$GLGSV,3,3,09,03,08,345,28,1*42
$GAGSV,3,1,10,03,10,327,26,05,36,280,37,09,29,216,40,10,03,170,27,7*7C
$GAGSV,3,2,10,12,17,152,32,24,53,289,40,25,05,271,23,26,19,043,31,7*78
$GAGSV,3,3,10,31,64,054,36,33,35,095,43,7*7B
$GAGSV,2,1,08,03,10,327,17,05,36,280,23,09,29,216,30,12,17,152,25,1*77
$GAGSV,2,2,08,24,53,289,29,26,19,043,29,31,64,054,24,33,35,095,30,1*7B
$GBGSV,4,1,14,60,04,101,31,46,29,300,37,43,34,052,39,38,07,062,37,1*79
$GBGSV,4,2,14,37,82,004,42,28,57,146,41,27,22,190,44,23,36,109,47,1*75
$GBGSV,4,3,14,20,08,251,39,19,11,297,30,13,05,087,40,11,15,038,35,1*70
$GBGSV,4,4,14,10,07,061,33,05,17,120,34,1*75
$GBGSV,3,1,09,19,11,297,28,20,08,251,38,23,36,109,46,27,22,190,41,3*70
$GBGSV,3,2,09,28,57,146,41,37,82,004,42,38,07,062,37,43,34,052,41,3*70
$GBGSV,3,3,09,46,29,300,37,3*43
$GBGSV,3,1,09,19,11,297,19,20,08,251,26,23,36,109,30,27,22,190,25,5*78
$GBGSV,3,2,09,28,57,146,34,37,82,004,28,38,07,062,31,43,34,052,23,5*7A
$GBGSV,3,3,09,46,29,300,24,5*47
$GNGSA,A,3,06,11,12,24,25,28,29,31,32,,,,0.5,0.3,0.4,1*35
$PSSGR,GSA,A,3,06,11,24,25,28,32,,,,,,,0.5,0.3,0.4,1,8*4B
$GNGSA,A,3,65,66,67,74,75,76,84,85,86,,,,0.5,0.3,0.4,2*3D
$GNGSA,A,3,03,05,09,12,24,26,31,33,,,,,0.5,0.3,0.4,3*3D
$PSSGR,GSA,A,3,305,309,312,324,326,331,333,,,,,,0.5,0.3,0.4,3,1*70
$GNGSA,A,3,05,10,11,19,20,23,27,28,37,38,43,46,0.5,0.3,0.4,4*3C
$PSSGR,GSA,A,3,219,220,223,227,228,237,238,243,246,,,,0.5,0.3,0.4,4,5*73
$GNVTG,193.5,T,190.5,M,2.8,N,5.3,K,E*36
$GNDTM,W84,,0000.000000,N,00000.000000,E,0.000,W84*41
$GNRMC,084949.00,A,4338.385257,N,00701.858747,E,2.8,193.5,020424,3.0,E,E,V*5F
$GNGNS,084949.00,4338.385257,N,00701.858747,E,EEEEEE,38,0.3,197.1,49.7,,,V*23
$GNGGA,084949.00,4338.385257,N,00701.858747,E,6,12,0.3,197.1,M,49.7,M,,*7C
$PSMSG,magcal=PASS,bluesky=0*00
$GPGSV,3,1,10,06,15,040,35,11,29,077,44,12,56,062,42,24,23,143,41,1*6A
$GPGSV,3,2,10,25,75,344,39,28,34,310,39,29,49,207,44,31,07,312,30,1*68
$GPGSV,3,3,10,32,36,259,42,36,00,000,37,1*68
$GPGSV,2,1,06,06,15,040,28,11,29,077,36,24,23,143,28,25,75,344,25,8*60
$GPGSV,2,2,06,28,34,310,26,32,36,259,30,8*69
$GLGSV,3,1,09,10,24,096,35,02,24,296,33,22,18,174,35,12,30,307,39,1*77
$GLGSV,3,2,09,11,65,033,35,01,14,245,40,20,34,039,28,21,56,126,44,1*76
$GLGSV,3,3,09,03,08,345,27,1*4D
$GAGSV,3,1,10,03,10,327,27,05,36,280,38,09,29,216,38,10,03,170,25,7*7F
$GAGSV,3,2,10,12,17,152,27,24,53,289,38,25,05,271,26,26,19,043,33,7*74
$GAGSV,3,3,10,31,64,054,36,33,35,095,43,7*7B
$GAGSV,2,1,08,03,10,327,17,05,36,280,25,09,29,216,23,12,17,152,22,1*74
$GAGSV,2,2,08,24,53,289,22,26,19,043,30,31,64,054,25,33,35,095,30,1*79
$GBGSV,4,1,14,60,04,101,31,46,29,300,37,43,34,052,37,38,07,062,38,1*78
$GBGSV,4,2,14,37,82,004,42,28,57,146,38,27,22,190,44,23,36,109,46,1*7A
$GBGSV,4,3,14,20,08,251,42,19,11,297,32,13,05,087,37,11,15,038,33,1*78
$GBGSV,4,4,14,10,07,061,34,05,17,120,33,1*75
$GBGSV,3,1,09,19,11,297,30,20,08,251,41,23,36,109,44,27,22,190,42,3*76
$GBGSV,3,2,09,28,57,146,36,37,82,004,41,38,07,062,37,43,34,052,35,3*70
$GBGSV,3,3,09,46,29,300,36,3*42
$GBGSV,3,1,09,19,11,297,21,20,08,251,26,23,36,109,29,27,22,190,29,5*77
$GBGSV,3,2,09,28,57,146,28,37,82,004,24,38,07,062,29,43,34,052,34,5*74
$GBGSV,3,3,09,46,29,300,24,5*47
$GNGSA,A,3,06,11,12,24,25,28,29,31,32,,,,0.5,0.3,0.4,1*35
$PSSGR,GSA,A,3,06,11,24,25,28,32,,,,,,,0.5,0.3,0.4,1,8*4B
$GNGSA,A,3,65,66,67,74,75,76,84,85,86,,,,0.5,0.3,0.4,2*3D
$GNGSA,A,3,03,05,09,12,24,26,31,33,,,,,0.5,0.3,0.4,3*3D
$PSSGR,GSA,A,3,305,309,312,324,326,331,333,,,,,,0.5,0.3,0.4,3,1*70
$GNGSA,A,3,05,10,11,19,20,23,27,28,37,38,43,46,0.5,0.3,0.4,4*3C
$PSSGR,GSA,A,3,219,220,223,227,228,237,238,243,246,,,,0.5,0.3,0.4,4,5*73
$GNVTG,187.3,T,184.3,M,2.7,N,5.0,K,E*3A
$GNDTM,W84,,0000.000000,N,00000.000000,E,0.000,W84*41
$GNRMC,084950.00,A,4338.384507,N,00701.858549,E,2.7,187.3,020424,3.0,E,E,V*54
$GNGNS,084950.00,4338.384507,N,00701.858549,E,EEEEEE,38,0.3,197.1,49.7,,,V*24
$GNGGA,084950.00,4338.384507,N,00701.858549,E,6,12,0.3,197.1,M,49.7,M,,*7B
$PSMSG,magcal=PASS,bluesky=0*00
$GPGSV,3,1,10,06,15,040,37,11,29,077,43,12,56,062,44,24,23,143,39,1*66
$GPGSV,3,2,10,25,75,344,36,28,34,310,38,29,49,207,40,31,07,312,29,1*6A
$GPGSV,3,3,10,32,36,259,40,36,00,000,34,1*69
$GPGSV,2,1,06,06,15,040,36,11,29,077,39,24,23,143,32,25,75,344,22,8*6C
$GPGSV,2,2,06,28,34,310,25,32,36,259,29,8*62
$GLGSV,3,1,09,10,24,096,35,02,24,296,36,22,18,174,36,12,30,307,38,1*70
$GLGSV,3,2,09,11,65,033,38,01,14,245,39,20,34,039,26,21,56,126,46,1*79
$GLGSV,3,3,09,03,08,345,27,1*4D
$GAGSV,3,1,10,03,10,327,28,05,36,280,37,09,29,216,38,10,03,170,30,7*7B
$GAGSV,3,2,10,12,17,152,28,24,53,289,38,25,05,271,25,26,19,043,35,7*7E
$GAGSV,3,3,10,31,64,054,40,33,35,095,42,7*7B
$GAGSV,2,1,08,03,10,327,17,05,36,280,25,09,29,216,27,12,17,152,22,1*70
$GAGSV,2,2,08,24,53,289,27,26,19,043,30,31,64,054,27,33,35,095,32,1*7C
$GBGSV,4,1,14,60,04,101,29,46,29,300,36,43,34,052,38,38,07,062,38,1*7F
$GBGSV,4,2,14,37,82,004,41,28,57,146,39,27,22,190,45,23,36,109,44,1*7B
$GBGSV,4,3,14,20,08,251,40,19,11,297,33,13,05,087,33,11,15,038,37,1*7B
$GBGSV,4,4,14,10,07,061,35,05,17,120,34,1*73
$GBGSV,3,1,09,19,11,297,30,20,08,251,40,23,36,109,43,27,22,190,43,3*71
$GBGSV,3,2,09,28,57,146,39,37,82,004,42,38,07,062,37,43,34,052,38,3*71
$GBGSV,3,3,09,46,29,300,37,3*43
$GBGSV,3,1,09,19,11,297,21,20,08,251,23,23,36,109,32,27,22,190,31,5*71
$GBGSV,3,2,09,28,57,146,28,37,82,004,26,38,07,062,31,43,34,052,32,5*79
$GBGSV,3,3,09,46,29,300,23,5*40
$GNGSA,A,3,06,11,12,24,25,28,29,31,32,,,,0.5,0.3,0.4,1*35
$PSSGR,GSA,A,3,06,11,24,25,28,32,,,,,,,0.5,0.3,0.4,1,8*4B
$GNGSA,A,3,65,66,67,74,75,76,84,85,86,,,,0.5,0.3,0.4,2*3D
$GNGSA,A,3,03,05,09,12,24,26,31,33,,,,,0.5,0.3,0.4,3*3D
$PSSGR,GSA,A,3,305,309,312,324,326,331,333,,,,,,0.5,0.3,0.4,3,1*70
$GNGSA,A,3,05,10,11,19,20,23,27,28,37,38,43,46,0.5,0.3,0.4,4*3C
$PSSGR,GSA,A,3,219,220,223,227,228,237,238,243,246,,,,0.5,0.3,0.4,4,5*73
$GNVTG,190.9,T,187.9,M,2.6,N,4.8,K,E*37
$GNDTM,W84,,0000.000000,N,00000.000000,E,0.000,W84*41
$GNRMC,084951.00,A,4338.383807,N,00701.858321,E,2.6,190.9,020424,3.0,E,E,V*5A
$GNGNS,084951.00,4338.383807,N,00701.858321,E,EEEEEE,38,0.3,196.9,49.7,,,V*2E
$GNGGA,084951.00,4338.383807,N,00701.858321,E,6,12,0.3,196.9,M,49.7,M,,*71
$PSMSG,magcal=PASS,bluesky=0*00
$GPGSV,3,1,10,06,15,040,36,11,29,077,42,12,56,062,46,24,23,143,35,1*68
$GPGSV,3,2,10,25,75,344,33,28,34,310,40,29,49,207,40,31,07,312,32,1*6A
$GPGSV,3,3,10,32,36,259,39,36,00,000,34,1*67
$GPGSV,2,1,06,06,15,040,27,11,29,077,31,24,23,143,30,25,75,344,28,8*6C
$GPGSV,2,2,06,28,34,310,30,32,36,259,26,8*69
$GAGSV,3,1,10,03,10,327,31,05,36,280,33,09,29,216,32,10,03,170,28,7*74
$GAGSV,3,2,10,12,17,152,30,24,53,289,36,25,05,271,28,26,19,043,36,7*77
$GAGSV,3,3,10,31,64,054,44,33,35,095,40,7*7D
$GAGSV,2,1,08,03,10,327,19,05,36,280,22,09,29,216,25,12,17,152,22,1*7B
$GAGSV,2,2,08,24,53,289,24,26,19,043,24,31,64,054,23,33,35,095,31,1*7D
$GBGSV,4,1,14,60,04,101,29,46,29,300,37,43,34,052,41,38,07,062,35,1*7D
$GBGSV,4,2,14,37,82,004,39,28,57,146,41,27,22,190,41,23,36,109,44,1*7F
$GBGSV,4,3,14,20,08,251,36,19,11,297,35,13,05,087,36,11,15,038,35,1*7B
$GBGSV,4,4,14,10,07,061,33,05,17,120,36,1*77
$GBGSV,3,1,09,19,11,297,33,20,08,251,35,23,36,109,43,27,22,190,37,3*73
$GBGSV,3,2,09,28,57,146,38,37,82,004,40,38,07,062,36,43,34,052,42,3*7E
$GBGSV,3,3,09,46,29,300,37,3*43
$GBGSV,3,1,09,19,11,297,27,20,08,251,32,23,36,109,31,27,22,190,31,5*74
$GBGSV,3,2,09,28,57,146,29,37,82,004,28,38,07,062,27,43,34,052,26,5*74
$GBGSV,3,3,09,46,29,300,27,5*44
$GNGSA,A,3,06,11,12,24,25,28,29,31,32,,,,0.5,0.3,0.4,1*35
$PSSGR,GSA,A,3,06,11,24,25,28,32,,,,,,,0.5,0.3,0.4,1,8*4B
$GNGSA,A,3,65,66,67,74,75,76,84,85,86,,,,0.5,0.3,0.4,2*3D
$GNGSA,A,3,03,05,09,12,24,26,31,33,,,,,0.5,0.3,0.4,3*3D
$PSSGR,GSA,A,3,305,309,312,324,326,331,333,,,,,,0.5,0.3,0.4,3,1*70
$GNGSA,A,3,05,10,11,19,20,23,27,28,37,38,43,46,0.5,0.3,0.4,4*3C
$PSSGR,GSA,A,3,219,220,223,227,228,237,238,243,246,,,,0.5,0.3,0.4,4,5*73
$GNVTG,196.7,T,193.7,M,2.9,N,5.4,K,E*36
$GNDTM,W84,,0000.000000,N,00000.000000,E,0.000,W84*41
$GNRMC,084952.00,A,4338.383024,N,00701.858007,E,2.9,196.7,020424,3.0,E,E,V*50
$GNGNS,084952.00,4338.383024,N,00701.858007,E,EEEEEE,38,0.3,196.8,49.7,,,V*22
$GNGGA,084952.00,4338.383024,N,00701.858007,E,6,12,0.3,196.8,M,49.7,M,,*7D
$PSMSG,magcal=PASS,bluesky=0*00
$GPGSV,3,1,10,06,15,040,44,11,29,077,46,12,56,062,46,24,23,143,34,1*68
$GPGSV,3,2,10,25,75,344,40,28,34,310,40,29,49,207,38,31,07,312,29,1*6B
$GPGSV,3,3,10,32,36,259,39,36,00,000,35,1*66
$GPGSV,2,1,06,06,15,040,33,11,29,077,33,24,23,143,24,25,75,344,27,8*61
$GPGSV,2,2,06,28,34,310,28,32,36,259,30,8*67
$GAGSV,3,1,10,03,10,327,31,05,36,280,36,09,29,216,34,10,03,170,28,7*77
$GAGSV,3,2,10,12,17,152,30,24,53,289,41,25,05,271,28,26,19,043,42,7*74
$GAGSV,3,3,10,31,64,054,43,33,35,095,41,7*7B
$GAGSV,2,1,08,03,10,327,23,05,36,280,32,09,29,216,24,12,17,152,19,1*7A
$GAGSV,2,2,08,24,53,289,31,26,19,043,29,31,64,054,29,33,35,095,27,1*79
$GBGSV,4,1,14,60,04,101,29,46,29,300,37,43,34,052,41,38,07,062,35,1*7D
$GBGSV,4,2,14,37,82,004,39,28,57,146,41,27,22,190,41,23,36,109,44,1*7F
$GBGSV,4,3,14,20,08,251,36,19,11,297,35,13,05,087,36,11,15,038,42,1*7B
$GBGSV,4,4,14,10,07,061,37,05,17,120,36,1*73
$GBGSV,3,1,09,19,11,297,29,20,08,251,36,23,36,109,42,27,22,190,35,3*78
$GBGSV,3,2,09,28,57,146,39,37,82,004,41,38,07,062,41,43,34,052,43,3*7F
$GBGSV,3,3,09,46,29,300,37,3*43
$GBGSV,3,1,09,19,11,297,25,20,08,251,31,23,36,109,32,27,22,190,33,5*74
$GBGSV,3,2,09,28,57,146,27,37,82,004,27,38,07,062,26,43,34,052,29,5*7B
$GBGSV,3,3,09,46,29,300,29,5*4A
$GNGSA,A,3,06,11,12,24,25,28,29,31,32,,,,0.5,0.3,0.4,1*35
$PSSGR,GSA,A,3,06,11,24,25,28,32,,,,,,,0.5,0.3,0.4,1,8*4B
$GNGSA,A,3,65,66,67,74,75,76,84,85,86,,,,0.5,0.3,0.4,2*3D
$GNGSA,A,3,03,05,09,12,24,26,31,33,,,,,0.5,0.3,0.4,3*3D
$PSSGR,GSA,A,3,305,309,312,324,326,331,333,,,,,,0.5,0.3,0.4,3,1*70
$GNGSA,A,3,05,10,11,19,20,23,27,28,37,38,43,46,0.5,0.3,0.4,4*3C
$PSSGR,GSA,A,3,219,220,223,227,228,237,238,243,246,,,,0.5,0.3,0.4,4,5*73
$GNVTG,260.9,T,257.9,M,6.0,N,11.1,K,E*0A
$GNDTM,W84,,0000.000000,N,00000.000000,E,0.000,W84*41
$GNRMC,084953.00,A,4338.382838,N,00701.855787,E,6.0,260.9,020424,3.0,E,E,V*5E
$GNGNS,084953.00,4338.382838,N,00701.855787,E,EEEEEE,38,0.3,195.6,49.7,,,V*28
$GNGGA,084953.00,4338.382838,N,00701.855787,E,6,12,0.3,195.6,M,49.7,M,,*77
$PSMSG,magcal=PASS,bluesky=0*00
$GPGSV,3,1,10,06,15,040,45,11,29,077,48,12,56,062,46,24,23,143,39,1*6A
$GPGSV,3,2,10,25,75,344,43,28,34,310,42,29,49,207,40,31,07,312,30,1*6D
$GPGSV,3,3,10,32,36,259,43,36,00,000,33,1*6D
$GPGSV,2,1,06,06,15,040,36,11,29,077,32,24,23,143,23,25,75,344,27,8*62
$GPGSV,2,2,06,28,34,310,33,32,36,259,32,8*6F
$GAGSV,3,1,10,03,10,327,28,05,36,280,39,09,29,216,32,10,03,170,28,7*76
$GAGSV,3,2,10,12,17,152,27,24,53,289,42,25,05,271,28,26,19,043,44,7*77
$GAGSV,3,3,10,31,64,054,37,33,35,095,46,7*7F
$GAGSV,2,1,08,03,10,327,23,05,36,280,34,09,29,216,25,12,17,152,19,1*7D
$GAGSV,2,2,08,24,53,289,32,26,19,043,29,31,64,054,28,33,35,095,35,1*78
$GBGSV,4,1,14,60,04,101,29,46,29,300,37,43,34,052,41,38,07,062,35,1*7D
$GBGSV,4,2,14,37,82,004,39,28,57,146,41,27,22,190,41,23,36,109,44,1*7F
$GBGSV,4,3,14,20,08,251,36,19,11,297,35,13,05,087,36,11,15,038,44,1*7D
$GBGSV,4,4,14,10,07,061,37,05,17,120,36,1*73
$GBGSV,3,1,09,19,11,297,30,20,08,251,34,23,36,109,42,27,22,190,36,3*71
$GBGSV,3,2,09,28,57,146,41,37,82,004,42,38,07,062,40,43,34,052,45,3*74
$GBGSV,3,3,09,46,29,300,35,3*41
$GBGSV,3,1,09,19,11,297,23,20,08,251,26,23,36,109,32,27,22,190,27,5*71
$GBGSV,3,2,09,28,57,146,28,37,82,004,32,38,07,062,26,43,34,052,30,5*78
$GBGSV,3,3,09,46,29,300,27,5*44
$GNGSA,A,3,06,11,12,24,25,28,29,31,32,,,,0.5,0.3,0.4,1*35
$PSSGR,GSA,A,3,06,11,24,25,28,32,,,,,,,0.5,0.3,0.4,1,8*4B
$GNGSA,A,3,65,66,67,74,75,76,84,85,86,,,,0.5,0.3,0.4,2*3D
$GNGSA,A,3,03,05,09,12,24,26,31,33,,,,,0.5,0.3,0.4,3*3D
$PSSGR,GSA,A,3,305,309,312,324,326,331,333,,,,,,0.5,0.3,0.4,3,1*70
$GNGSA,A,3,05,10,11,19,20,23,27,28,37,38,43,46,0.5,0.3,0.4,4*3C
$PSSGR,GSA,A,3,219,220,223,227,228,237,238,243,246,,,,0.5,0.3,0.4,4,5*73
$GNVTG,329.4,T,326.4,M,7.3,N,13.4,K,E*04
$GNDTM,W84,,0000.000000,N,00000.000000,E,0.000,W84*41
$GNRMC,084954.00,A,4338.384636,N,00701.854662,E,7.3,329.4,020424,3.0,E,E,V*57
$GNGNS,084954.00,4338.384636,N,00701.854662,E,EEEEEE,38,0.3,195.2,49.7,,,V*26
$GNGGA,084954.00,4338.384636,N,00701.854662,E,6,12,0.3,195.2,M,49.7,M,,*79
$PSMSG,magcal=PASS,bluesky=0*00
$GPGSV,3,1,10,06,15,040,43,11,29,077,46,12,56,062,45,24,23,143,41,1*6E
$GPGSV,3,2,10,25,75,344,40,28,34,310,39,29,49,207,38,31,07,312,29,1*65
$GPGSV,3,3,10,32,36,259,41,36,00,000,37,1*6B
$GPGSV,2,1,06,06,15,040,36,11,29,077,31,24,23,143,23,25,75,344,31,8*66
$GPGSV,2,2,06,28,34,310,30,32,36,259,32,8*6C
$GAGSV,3,1,10,03,10,327,24,05,36,280,34,09,29,216,34,10,03,170,28,7*71
$GAGSV,3,2,10,12,17,152,27,24,53,289,40,25,05,271,28,26,19,043,43,7*72
$GAGSV,3,3,10,31,64,054,37,33,35,095,41,7*78
$GAGSV,2,1,08,03,10,327,23,05,36,280,38,09,29,216,27,12,17,152,19,1*73
$GAGSV,2,2,08,24,53,289,32,26,19,043,31,31,64,054,23,33,35,095,32,1*7D
$GBGSV,4,1,14,60,04,101,29,46,29,300,37,43,34,052,41,38,07,062,35,1*7D
$GBGSV,4,2,14,37,82,004,39,28,57,146,41,27,22,190,41,23,36,109,44,1*7F
$GBGSV,4,3,14,20,08,251,36,19,11,297,35,13,05,087,36,11,15,038,42,1*7B
$GBGSV,4,4,14,10,07,061,36,05,17,120,36,1*72
$GBGSV,3,1,09,19,11,297,27,20,08,251,32,23,36,109,43,27,22,190,31,3*77
$GBGSV,3,2,09,28,57,146,41,37,82,004,41,38,07,062,37,43,34,052,45,3*77
$GBGSV,3,3,09,46,29,300,33,3*47
$GBGSV,3,1,09,19,11,297,26,20,08,251,26,23,36,109,30,27,22,190,24,5*75
$GBGSV,3,2,09,28,57,146,30,37,82,004,31,38,07,062,28,43,34,052,32,5*7E
$GBGSV,3,3,09,46,29,300,34,5*46
$GNGSA,A,3,06,11,12,24,25,28,29,31,32,,,,0.5,0.3,0.4,1*35
$PSSGR,GSA,A,3,06,11,24,25,28,32,,,,,,,0.5,0.3,0.4,1,8*4B
$GNGSA,A,3,65,66,67,74,75,76,84,85,86,,,,0.5,0.3,0.4,2*3D
$GNGSA,A,3,03,05,09,12,24,26,31,33,,,,,0.5,0.3,0.4,3*3D
$PSSGR,GSA,A,3,305,309,312,324,326,331,333,,,,,,0.5,0.3,0.4,3,1*70
$GNGSA,A,3,05,10,11,19,20,23,27,28,37,38,43,46,0.5,0.3,0.4,4*3C
$PSSGR,GSA,A,3,219,220,223,227,228,237,238,243,246,,,,0.5,0.3,0.4,4,5*73
$GNVTG,24.2,T,21.2,M,3.1,N,5.7,K,E*3C
$GNDTM,W84,,0000.000000,N,00000.000000,E,0.000,W84*41
$GNRMC,084955.00,A,4338.385686,N,00701.855676,E,3.1,24.2,020424,3.0,E,E,V*66
$GNGNS,084955.00,4338.385686,N,00701.855676,E,EEEEEE,38,0.3,195.0,49.7,,,V*2B
$GNGGA,084955.00,4338.385686,N,00701.855676,E,6,12,0.3,195.0,M,49.7,M,,*74
$PSMSG,magcal=PASS,bluesky=0*00
$GPGSV,3,1,10,06,15,040,39,11,29,077,45,12,56,062,46,24,23,143,39,1*6C
$GPGSV,3,2,10,25,75,344,39,28,34,310,42,29,49,207,40,31,07,312,26,1*67
$GPGSV,3,3,10,32,36,259,39,36,00,000,38,1*6B
$GPGSV,2,1,06,06,15,040,36,11,29,077,28,24,23,143,23,25,75,344,31,8*6E
$GPGSV,2,2,06,28,34,310,32,32,36,259,31,8*6D
$GAGSV,3,1,10,03,10,327,25,05,36,280,32,09,29,216,35,10,03,170,28,7*77
$GAGSV,3,2,10,12,17,152,33,24,53,289,39,25,05,271,28,26,19,043,44,7*7E
$GAGSV,3,3,10,31,64,054,39,33,35,095,40,7*77
$GAGSV,2,1,08,03,10,327,23,05,36,280,28,09,29,216,24,12,17,152,19,1*71
$GAGSV,2,2,08,24,53,289,33,26,19,043,33,31,64,054,30,33,35,095,32,1*7C
$GBGSV,4,1,14,60,04,101,29,46,29,300,37,43,34,052,41,38,07,062,35,1*7D
$GBGSV,4,2,14,37,82,004,39,28,57,146,41,27,22,190,41,23,36,109,44,1*7F
$GBGSV,4,3,14,20,08,251,36,19,11,297,35,13,05,087,36,11,15,038,40,1*79
$GBGSV,4,4,14,10,07,061,36,05,17,120,36,1*72
$GBGSV,3,1,09,19,11,297,28,20,08,251,28,23,36,109,43,27,22,190,32,3*70
$GBGSV,3,2,09,28,57,146,44,37,82,004,41,38,07,062,39,43,34,052,41,3*78
$GBGSV,3,3,09,46,29,300,35,3*41
$GBGSV,3,1,09,19,11,297,25,20,08,251,28,23,36,109,28,27,22,190,22,5*77
$GBGSV,3,2,09,28,57,146,25,37,82,004,31,38,07,062,27,43,34,052,30,5*77
$GBGSV,3,3,09,46,29,300,32,5*40
$GNGSA,A,3,06,11,12,24,25,28,29,31,32,,,,0.5,0.3,0.4,1*35
$PSSGR,GSA,A,3,06,11,24,25,28,32,,,,,,,0.5,0.3,0.4,1,8*4B
$GNGSA,A,3,65,66,67,74,75,76,84,85,86,,,,0.5,0.3,0.4,2*3D
$GNGSA,A,3,03,05,09,12,24,26,31,33,,,,,0.5,0.3,0.4,3*3D
$PSSGR,GSA,A,3,305,309,312,324,326,331,333,,,,,,0.5,0.3,0.4,3,1*70
$GNGSA,A,3,05,10,11,19,20,23,27,28,37,38,43,46,0.5,0.3,0.4,4*3C
$PSSGR,GSA,A,3,219,220,223,227,228,237,238,243,246,,,,0.5,0.3,0.4,4,5*73
$GNVTG,27.1,T,24.1,M,2.7,N,5.0,K,E*3A
$GNDTM,W84,,0000.000000,N,00000.000000,E,0.000,W84*41
$GNRMC,084956.00,A,4338.386430,N,00701.856843,E,2.7,27.1,020424,3.0,E,E,V*65
$GNGNS,084956.00,4338.386430,N,00701.856843,E,EEEEEE,38,0.3,194.8,49.7,,,V*26
$GNGGA,084956.00,4338.386430,N,00701.856843,E,6,12,0.3,194.8,M,49.7,M,,*79
$PSMSG,magcal=PASS,bluesky=0*00
$GPGSV,3,1,10,06,15,040,39,11,29,077,46,12,56,062,48,24,23,143,39,1*61
$GPGSV,3,2,10,25,75,344,42,28,34,310,44,29,49,207,41,31,07,312,28,1*62
$GPGSV,3,3,10,32,36,259,37,36,00,000,40,1*6A
$GPGSV,2,1,06,06,15,040,31,11,29,077,30,24,23,143,23,25,75,344,31,8*60
$GPGSV,2,2,06,28,34,310,34,32,36,259,29,8*62
$GAGSV,3,1,10,03,10,327,27,05,36,280,32,09,29,216,36,10,03,170,28,7*76
$GAGSV,3,2,10,12,17,152,33,24,53,289,37,25,05,271,28,26,19,043,40,7*74
$GAGSV,3,3,10,31,64,054,42,33,35,095,39,7*75
$GAGSV,2,1,08,03,10,327,20,05,36,280,29,09,29,216,27,12,17,152,19,1*70
$GAGSV,2,2,08,24,53,289,31,26,19,043,30,31,64,054,25,33,35,095,34,1*7F
$GBGSV,4,1,14,60,04,101,29,46,29,300,37,43,34,052,41,38,07,062,35,1*7D
$GBGSV,4,2,14,37,82,004,39,28,57,146,41,27,22,190,41,23,36,109,44,1*7F
$GBGSV,4,3,14,20,08,251,36,19,11,297,35,13,05,087,36,11,15,038,39,1*77
$GBGSV,4,4,14,10,07,061,37,05,17,120,36,1*73
$GBGSV,3,1,09,19,11,297,30,20,08,251,29,23,36,109,39,27,22,190,31,3*76
$GBGSV,3,2,09,28,57,146,42,37,82,004,38,38,07,062,39,43,34,052,42,3*73
$GBGSV,3,3,09,46,29,300,39,3*4D
$GBGSV,3,1,09,19,11,297,27,20,08,251,29,23,36,109,27,27,22,190,22,5*7B
$GBGSV,3,2,09,28,57,146,30,37,82,004,25,38,07,062,31,43,34,052,27,5*77
$GBGSV,3,3,09,46,29,300,29,5*4A
$GNGSA,A,3,06,11,12,24,25,28,29,31,32,,,,0.6,0.4,0.5,1*30
$PSSGR,GSA,A,3,06,11,24,25,28,32,,,,,,,0.6,0.4,0.5,1,8*4E
$GNGSA,A,3,03,05,09,12,24,26,31,33,,,,,0.6,0.4,0.5,3*38
$PSSGR,GSA,A,3,305,309,324,326,331,333,,,,,,,0.6,0.4,0.5,3,1*45
$GNGSA,A,3,05,10,11,19,20,23,27,28,37,38,43,46,0.6,0.4,0.5,4*39
$PSSGR,GSA,A,3,219,220,223,227,228,237,238,243,246,,,,0.6,0.4,0.5,4,5*76
$GNVTG,22.3,T,19.3,M,2.9,N,5.3,K,E*3C
$GNDTM,W84,,0000.000000,N,00000.000000,E,0.000,W84*41
$GNRMC,084957.00,A,4338.387241,N,00701.857806,E,2.9,22.3,020424,3.0,E,E,V*6C
$GNGNS,084957.00,4338.387241,N,00701.857806,E,EEEEEE,29,0.4,195.2,49.7,,,V*2A
$GNGGA,084957.00,4338.387241,N,00701.857806,E,6,12,0.4,195.2,M,49.7,M,,*75
$PSMSG,magcal=PASS,bluesky=0*00
$GPGSV,3,1,10,06,15,040,41,11,29,077,43,12,56,062,46,24,23,143,36,1*6A
$GPGSV,3,2,10,25,75,344,41,28,34,310,42,29,49,207,37,31,07,312,27,1*69
$GPGSV,3,3,10,32,36,259,40,36,00,000,43,1*69
$GPGSV,2,1,06,06,15,040,35,11,29,077,29,24,23,143,23,25,75,344,34,8*69
$GPGSV,2,2,06,28,34,310,33,32,36,259,30,8*6D
$GAGSV,3,1,10,03,10,327,25,05,36,280,36,09,29,216,34,10,03,170,28,7*72
$GAGSV,3,2,10,12,17,152,29,24,53,289,32,25,05,271,28,26,19,043,40,7*7A
$GAGSV,3,3,10,31,64,054,43,33,35,095,42,7*78
$GAGSV,2,1,08,03,10,327,20,05,36,280,28,09,29,216,30,12,17,152,22,1*7F
$GAGSV,2,2,08,24,53,289,31,26,19,043,29,31,64,054,27,33,35,095,33,1*72
$GBGSV,4,1,14,60,04,101,29,46,29,300,37,43,34,052,41,38,07,062,35,1*7D
$GBGSV,4,2,14,37,82,004,39,28,57,146,41,27,22,190,41,23,36,109,44,1*7F
$GBGSV,4,3,14,20,08,251,36,19,11,297,35,13,05,087,36,11,15,038,38,1*76
$GBGSV,4,4,14,10,07,061,36,05,17,120,36,1*72
$GBGSV,3,1,09,19,11,297,30,20,08,251,33,23,36,109,43,27,22,190,30,3*71
$GBGSV,3,2,09,28,57,146,43,37,82,004,42,38,07,062,39,43,34,052,38,3*72
$GBGSV,3,3,09,46,29,300,41,3*42
$GBGSV,3,1,09,19,11,297,27,20,08,251,25,23,36,109,29,27,22,190,24,5*7F
$GBGSV,3,2,09,28,57,146,27,37,82,004,28,38,07,062,30,43,34,052,26,5*7C
$GBGSV,3,3,09,46,29,300,34,5*46
$GNGSA,A,3,06,11,12,24,25,28,29,31,32,,,,0.6,0.4,0.5,1*30
$PSSGR,GSA,A,3,06,11,24,25,28,32,,,,,,,0.6,0.4,0.5,1,8*4E
$GNGSA,A,3,03,05,09,12,24,26,31,33,,,,,0.6,0.4,0.5,3*38
$PSSGR,GSA,A,3,305,309,324,326,331,333,,,,,,,0.6,0.4,0.5,3,1*45
$GNGSA,A,3,05,10,11,19,20,23,27,28,37,38,43,46,0.6,0.4,0.5,4*39
$PSSGR,GSA,A,3,219,220,223,227,228,237,238,243,246,,,,0.6,0.4,0.5,4,5*76
$GNVTG,15.5,T,12.5,M,3.0,N,5.5,K,A*39
$GNDTM,W84,,0000.000000,N,00000.000000,E,0.000,W84*41
$GNRMC,084958.00,A,4338.388665,N,00701.860235,E,3.0,15.5,020424,3.0,E,A,V*6E
$GNGNS,084958.00,4338.388665,N,00701.860235,E,ANAANN,29,0.4,195.8,49.7,,,V*23
$GNGGA,084958.00,4338.388665,N,00701.860235,E,1,12,0.4,195.8,M,49.7,M,,*74
$PSMSG,magcal=PASS,bluesky=0*00
$GPGSV,3,1,10,06,15,040,41,11,29,077,41,12,56,062,46,24,23,143,33,1*6D
$GPGSV,3,2,10,25,75,344,42,28,34,310,39,29,49,207,39,31,07,312,27,1*68
$GPGSV,3,3,10,32,36,259,41,36,00,000,39,1*65
$GPGSV,2,1,06,06,15,040,31,11,29,077,33,24,23,143,25,25,75,344,31,8*65
$GPGSV,2,2,06,28,34,310,32,32,36,259,35,8*69
$GAGSV,3,1,10,03,10,327,25,05,36,280,32,09,29,216,29,10,03,170,28,7*7A
$GAGSV,3,2,10,12,17,152,26,24,53,289,30,25,05,271,28,26,19,043,39,7*79
$GAGSV,3,3,10,31,64,054,42,33,35,095,45,7*7E
$GAGSV,2,1,08,03,10,327,20,05,36,280,29,09,29,216,22,12,17,152,23,1*7C
$GAGSV,2,2,08,24,53,289,22,26,19,043,32,31,64,054,26,33,35,095,31,1*79
$GBGSV,4,1,14,60,04,101,29,46,29,300,37,43,34,052,41,38,07,062,35,1*7D
$GBGSV,4,2,14,37,82,004,39,28,57,146,41,27,22,190,41,23,36,109,44,1*7F
$GBGSV,4,3,14,20,08,251,36,19,11,297,35,13,05,087,36,11,15,038,40,1*79
$GBGSV,4,4,14,10,07,061,34,05,17,120,36,1*70
$GBGSV,3,1,09,19,11,297,28,20,08,251,31,23,36,109,43,27,22,190,30,3*7A
$GBGSV,3,2,09,28,57,146,41,37,82,004,41,38,07,062,36,43,34,052,35,3*71
$GBGSV,3,3,09,46,29,300,38,3*4C
$GBGSV,3,1,09,19,11,297,25,20,08,251,27,23,36,109,29,27,22,190,26,5*7D
$GBGSV,3,2,09,28,57,146,29,37,82,004,33,38,07,062,27,43,34,052,23,5*7B
$GBGSV,3,3,09,46,29,300,31,5*43
$GNGSA,A,3,06,11,12,24,25,28,29,31,32,,,,0.6,0.4,0.5,1*30
$PSSGR,GSA,A,3,06,11,24,25,28,32,,,,,,,0.6,0.4,0.5,1,8*4E
$GNGSA,A,3,03,05,09,12,24,26,31,33,,,,,0.6,0.4,0.5,3*38
$PSSGR,GSA,A,3,305,309,312,324,326,331,333,,,,,,0.6,0.4,0.5,3,1*75
$GNGSA,A,3,10,11,19,20,23,27,28,37,38,43,46,,0.6,0.4,0.5,4*3C
$PSSGR,GSA,A,3,219,220,223,227,228,237,238,243,246,,,,0.6,0.4,0.5,4,5*76
$GNVTG,20.3,T,17.3,M,2.9,N,5.3,K,A*34
$GNDTM,W84,,0000.000000,N,00000.000000,E,0.000,W84*41
$GNRMC,084959.00,A,4338.389409,N,00701.860544,E,2.9,20.3,020424,3.0,E,A,V*6F
$GNGNS,084959.00,4338.389409,N,00701.860544,E,ANAANN,28,0.4,196.0,49.7,,,V*20
$GNGGA,084959.00,4338.389409,N,00701.860544,E,1,12,0.4,196.0,M,49.7,M,,*76
$PSMSG,magcal=PASS,bluesky=0*00
$GPGSV,3,1,10,06,15,040,41,11,29,077,39,12,56,062,48,24,23,143,35,1*6A
$GPGSV,3,2,10,25,75,344,43,28,34,310,38,29,49,207,40,31,07,312,28,1*69
$GPGSV,3,3,10,32,36,259,44,36,00,000,41,1*6F
$GPGSV,2,1,06,06,15,040,37,11,29,077,32,24,23,143,25,25,75,344,34,8*67
$GPGSV,2,2,06,28,34,310,31,32,36,259,34,8*6B
$GAGSV,3,1,10,03,10,327,25,05,36,280,34,09,29,216,33,10,03,170,28,7*77
$GAGSV,3,2,10,12,17,152,26,24,53,289,38,25,05,271,28,26,19,043,41,7*7E
$GAGSV,3,3,10,31,64,054,42,33,35,095,42,7*79
$GAGSV,2,1,08,03,10,327,17,05,36,280,33,09,29,216,26,12,17,152,22,1*76
$GAGSV,2,2,08,24,53,289,29,26,19,043,33,31,64,054,30,33,35,095,27,1*73
$GBGSV,4,1,14,60,04,101,29,46,29,300,37,43,34,052,41,38,07,062,35,1*7D
$GBGSV,4,2,14,37,82,004,39,28,57,146,41,27,22,190,41,23,36,109,44,1*7F
$GBGSV,4,3,14,20,08,251,36,19,11,297,35,13,05,087,36,11,15,038,40,1*79
$GBGSV,4,4,14,10,07,061,38,05,17,120,36,1*7C
$GBGSV,3,1,09,19,11,297,29,20,08,251,29,23,36,109,44,27,22,190,31,3*74
$GBGSV,3,2,09,28,57,146,41,37,82,004,42,38,07,062,40,43,34,052,36,3*70
$GBGSV,3,3,09,46,29,300,36,3*42
$GBGSV,3,1,09,19,11,297,22,20,08,251,27,23,36,109,25,27,22,190,21,5*71
$GBGSV,3,2,09,28,57,146,31,37,82,004,33,38,07,062,32,43,34,052,29,5*7C
$GBGSV,3,3,09,46,29,300,30,5*42
$GNGSA,A,3,06,11,12,24,25,28,29,31,32,,,,0.6,0.4,0.5,1*30
$PSSGR,GSA,A,3,06,11,24,25,28,32,,,,,,,0.6,0.4,0.5,1,8*4E
$GNGSA,A,3,03,05,09,12,24,26,31,33,,,,,0.6,0.4,0.5,3*38
$PSSGR,GSA,A,3,305,309,324,326,331,333,,,,,,,0.6,0.4,0.5,3,1*45
$GNGSA,A,3,10,11,19,20,23,28,37,38,43,46,,,0.6,0.4,0.5,4*39
$PSSGR,GSA,A,3,220,223,228,237,238,243,246,,,,,,0.6,0.4,0.5,4,5*7B
$GNVTG,19.2,T,16.2,M,3.0,N,5.6,K,A*32
$GNDTM,W84,,0000.000000,N,00000.000000,E,0.000,W84*41
$GNRMC,085000.00,A,4338.390191,N,00701.860976,E,3.0,19.2,020424,3.0,E,A,V*69
$GNGNS,085000.00,4338.390191,N,00701.860976,E,ANAANN,27,0.4,196.3,49.7,,,V*29
$GNGGA,085000.00,4338.390191,N,00701.860976,E,1,12,0.4,196.3,M,49.7,M,,*70
$PSMSG,magcal=PASS,bluesky=0*00
$GPGSV,3,1,10,06,15,040,41,11,29,077,41,12,56,062,47,24,23,143,37,1*68
$GPGSV,3,2,10,25,75,344,45,28,34,310,43,29,49,207,40,31,07,312,31,1*6B
$GPGSV,3,3,10,32,36,259,43,36,00,000,41,1*68
$GPGSV,2,1,06,06,15,040,36,11,29,077,27,24,23,143,26,25,75,344,31,8*64
$GPGSV,2,2,06,28,34,310,33,32,36,259,31,8*6C
$GAGSV,3,1,10,03,10,327,27,05,36,280,34,09,29,216,32,10,03,170,28,7*74
$GAGSV,3,2,10,12,17,152,28,24,53,289,35,25,05,271,28,26,19,043,41,7*7D
$GAGSV,3,3,10,31,64,054,41,33,35,095,39,7*76
$GAGSV,2,1,08,03,10,327,17,05,36,280,31,09,29,216,21,12,17,152,22,1*73
$GAGSV,2,2,08,24,53,289,28,26,19,043,34,31,64,054,29,33,35,095,28,1*72
$GBGSV,4,1,14,60,04,101,29,46,29,300,37,43,34,052,41,38,07,062,35,1*7D
$GBGSV,4,2,14,37,82,004,39,28,57,146,41,27,22,190,41,23,36,109,44,1*7F
$GBGSV,4,3,14,20,08,251,36,19,11,297,35,13,05,087,36,11,15,038,40,1*79
$GBGSV,4,4,14,10,07,061,37,05,17,120,36,1*73
$GBGSV,3,1,09,19,11,297,27,20,08,251,30,23,36,109,42,27,22,190,27,3*73
$GBGSV,3,2,09,28,57,146,41,37,82,004,43,38,07,062,40,43,34,052,42,3*72
$GBGSV,3,3,09,46,29,300,36,3*42
$GBGSV,3,1,09,19,11,297,24,20,08,251,27,23,36,109,24,27,22,190,21,5*76
$GBGSV,3,2,09,28,57,146,32,37,82,004,32,38,07,062,32,43,34,052,30,5*76
$GBGSV,3,3,09,46,29,300,27,5*44
$GNGSA,A,3,06,11,12,24,25,28,29,31,32,,,,0.6,0.4,0.5,1*30
$PSSGR,GSA,A,3,06,11,24,25,28,32,,,,,,,0.6,0.4,0.5,1,8*4E
$GNGSA,A,3,03,05,09,12,24,26,31,33,,,,,0.6,0.4,0.5,3*38
$PSSGR,GSA,A,3,305,309,324,326,331,333,,,,,,,0.6,0.4,0.5,3,1*45
$GNGSA,A,3,10,11,19,20,23,27,28,37,38,43,46,,0.6,0.4,0.5,4*3C
$PSSGR,GSA,A,3,220,223,228,237,238,243,246,,,,,,0.6,0.4,0.5,4,5*7B
$GNVTG,19.3,T,16.3,M,2.8,N,5.2,K,A*3F
$GNDTM,W84,,0000.000000,N,00000.000000,E,0.000,W84*41
$GNRMC,085001.00,A,4338.391057,N,00701.861394,E,2.8,19.3,020424,3.0,E,A,V*6D
$GNGNS,085001.00,4338.391057,N,00701.861394,E,ANAANN,28,0.4,196.3,49.7,,,V*2A
$GNGGA,085001.00,4338.391057,N,00701.861394,E,1,12,0.4,196.3,M,49.7,M,,*7C
$PSMSG,magcal=PASS,bluesky=0*00
$GPGSV,3,1,10,06,15,040,42,11,29,077,45,12,56,062,46,24,23,143,37,1*6E
$GPGSV,3,2,10,25,75,344,45,28,34,310,40,29,49,207,35,31,07,312,29,1*63
$GPGSV,3,3,10,32,36,259,40,36,00,000,43,1*69
$GPGSV,2,1,06,06,15,040,35,11,29,077,34,24,23,143,27,25,75,344,32,8*67
$GPGSV,2,2,06,28,34,310,35,32,36,259,30,8*6B
$GAGSV,3,1,10,03,10,327,26,05,36,280,38,09,29,216,29,10,03,170,28,7*73
$GAGSV,3,2,10,12,17,152,29,24,53,289,34,25,05,271,28,26,19,043,39,7*72
$GAGSV,3,3,10,31,64,054,39,33,35,095,39,7*79
$GAGSV,2,1,08,03,10,327,22,05,36,280,32,09,29,216,21,12,17,152,22,1*76
$GAGSV,2,2,08,24,53,289,24,26,19,043,33,31,64,054,30,33,35,095,32,1*7A
$GBGSV,4,1,14,60,04,101,29,46,29,300,37,43,34,052,41,38,07,062,35,1*7D
$GBGSV,4,2,14,37,82,004,39,28,57,146,41,27,22,190,41,23,36,109,44,1*7F
$GBGSV,4,3,14,20,08,251,36,19,11,297,35,13,05,087,36,11,15,038,38,1*76
$GBGSV,4,4,14,10,07,061,38,05,17,120,36,1*7C
$GBGSV,3,1,09,19,11,297,27,20,08,251,29,23,36,109,40,27,22,190,25,3*7B
$GBGSV,3,2,09,28,57,146,44,37,82,004,43,38,07,062,41,43,34,052,45,3*71
$GBGSV,3,3,09,46,29,300,34,3*40
$GBGSV,3,1,09,19,11,297,25,20,08,251,27,23,36,109,25,27,22,190,20,5*77
$GBGSV,3,2,09,28,57,146,33,37,82,004,36,38,07,062,33,43,34,052,33,5*71
$GBGSV,3,3,09,46,29,300,28,5*4B
$GNGSA,A,3,06,11,12,24,25,28,29,31,32,,,,0.6,0.4,0.5,1*30
$PSSGR,GSA,A,3,06,11,24,25,28,32,,,,,,,0.6,0.4,0.5,1,8*4E
$GNGSA,A,3,03,05,09,12,24,26,31,33,,,,,0.6,0.4,0.5,3*38
$PSSGR,GSA,A,3,305,309,324,326,331,333,,,,,,,0.6,0.4,0.5,3,1*45
$GNGSA,A,3,10,11,19,20,23,27,28,37,38,43,46,,0.6,0.4,0.5,4*3C
$PSSGR,GSA,A,3,220,223,228,237,238,243,246,,,,,,0.6,0.4,0.5,4,5*7B
$GNVTG,20.7,T,17.7,M,2.8,N,5.3,K,A*35
$GNDTM,W84,,0000.000000,N,00000.000000,E,0.000,W84*41
$GNRMC,085002.00,A,4338.391968,N,00701.861772,E,2.8,20.7,020424,3.0,E,A,V*69
$GNGNS,085002.00,4338.391968,N,00701.861772,E,ANAANN,28,0.4,196.6,49.7,,,V*25
$GNGGA,085002.00,4338.391968,N,00701.861772,E,1,12,0.4,196.6,M,49.7,M,,*73
$PSMSG,magcal=PASS,bluesky=0*00
$GPGSV,3,1,10,06,15,040,39,11,29,077,45,12,56,062,46,24,23,143,33,1*66
$GPGSV,3,2,10,25,75,344,44,28,34,310,42,29,49,207,36,31,07,312,30,1*6B
$GPGSV,3,3,10,32,36,259,44,36,00,000,44,1*6A
$GPGSV,2,1,06,06,15,040,27,11,29,077,34,24,23,143,26,25,75,344,30,8*67
$GPGSV,2,2,06,28,34,310,33,32,36,259,31,8*6C
$GAGSV,3,1,10,03,10,327,27,05,36,280,37,09,29,216,31,10,03,170,28,7*74
$GAGSV,3,2,10,12,17,152,24,24,53,289,39,25,05,271,28,26,19,043,40,7*7C
$GAGSV,3,3,10,31,64,054,40,33,35,095,42,7*7B
$GAGSV,2,1,08,03,10,327,22,05,36,280,25,09,29,216,23,12,17,152,18,1*7B
$GAGSV,2,2,08,24,53,289,24,26,19,043,31,31,64,054,31,33,35,095,32,1*79
$GBGSV,4,1,14,60,04,101,29,46,29,300,37,43,34,052,41,38,07,062,35,1*7D
$GBGSV,4,2,14,37,82,004,39,28,57,146,41,27,22,190,41,23,36,109,44,1*7F
$GBGSV,4,3,14,20,08,251,36,19,11,297,35,13,05,087,36,11,15,038,37,1*79
$GBGSV,4,4,14,10,07,061,36,05,17,120,36,1*72
$GBGSV,3,1,09,19,11,297,29,20,08,251,29,23,36,109,43,27,22,190,25,3*76
$GBGSV,3,2,09,28,57,146,42,37,82,004,43,38,07,062,39,43,34,052,41,3*7C
$GBGSV,3,3,09,46,29,300,39,3*4D
$GBGSV,3,1,09,19,11,297,25,20,08,251,27,23,36,109,25,27,22,190,20,5*77
$GBGSV,3,2,09,28,57,146,28,37,82,004,32,38,07,062,28,43,34,052,31,5*77
$GBGSV,3,3,09,46,29,300,30,5*42
$GNGSA,A,3,06,11,12,24,25,28,29,31,32,,,,0.6,0.4,0.5,1*30
$PSSGR,GSA,A,3,06,11,24,25,28,32,,,,,,,0.6,0.4,0.5,1,8*4E
$GNGSA,A,3,03,05,09,12,24,26,31,33,,,,,0.6,0.4,0.5,3*38
$PSSGR,GSA,A,3,305,309,324,326,331,333,,,,,,,0.6,0.4,0.5,3,1*45
$GNGSA,A,3,10,11,19,20,23,27,28,37,38,43,46,,0.6,0.4,0.5,4*3C
$PSSGR,GSA,A,3,220,223,228,237,238,243,246,,,,,,0.6,0.4,0.5,4,5*7B
$GNVTG,21.6,T,18.6,M,2.9,N,5.3,K,E*3E
$GNDTM,W84,,0000.000000,N,00000.000000,E,0.000,W84*41
$GNRMC,085003.00,A,4338.392750,N,00701.862123,E,2.9,21.6,020424,3.0,E,E,V*6A
$GNGNS,085003.00,4338.392750,N,00701.862123,E,EEEEEE,28,0.4,196.6,49.7,,,V*2C
$GNGGA,085003.00,4338.392750,N,00701.862123,E,6,12,0.4,196.6,M,49.7,M,,*72
$PSMSG,magcal=PASS,bluesky=0*00
$GPGSV,3,1,10,06,15,040,39,11,29,077,41,12,56,062,45,24,23,143,31,1*63
$GPGSV,3,2,10,25,75,344,42,28,34,310,43,29,49,207,40,31,07,312,27,1*6B
$GPGSV,3,3,10,32,36,259,44,36,00,000,39,1*60
$GPGSV,2,1,06,06,15,040,27,11,29,077,29,24,23,143,25,25,75,344,27,8*6E
$GPGSV,2,2,06,28,34,310,33,32,36,259,34,8*69
$GAGSV,3,1,10,03,10,327,22,05,36,280,38,09,29,216,29,10,03,170,28,7*77
$GAGSV,3,2,10,12,17,152,27,24,53,289,42,25,05,271,28,26,19,043,39,7*7D
$GAGSV,3,3,10,31,64,054,39,33,35,095,42,7*75
$GAGSV,2,1,08,03,10,327,22,05,36,280,30,09,29,216,22,12,17,152,18,1*7E
$GAGSV,2,2,08,24,53,289,33,26,19,043,33,31,64,054,28,33,35,095,34,1*73
$GBGSV,4,1,14,60,04,101,29,46,29,300,37,43,34,052,41,38,07,062,35,1*7D
$GBGSV,4,2,14,37,82,004,39,28,57,146,41,27,22,190,41,23,36,109,44,1*7F
$GBGSV,4,3,14,20,08,251,36,19,11,297,35,13,05,087,36,11,15,038,38,1*76
$GBGSV,4,4,14,10,07,061,33,05,17,120,36,1*77
$GBGSV,3,1,09,19,11,297,25,20,08,251,27,23,36,109,44,27,22,190,29,3*7F
$GBGSV,3,2,09,28,57,146,45,37,82,004,43,38,07,062,37,43,34,052,42,3*76
$GBGSV,3,3,09,46,29,300,38,3*4C
$GBGSV,3,1,09,19,11,297,23,20,08,251,27,23,36,109,25,27,22,190,20,5*71
$GBGSV,3,2,09,28,57,146,28,37,82,004,33,38,07,062,22,43,34,052,28,5*74
$GBGSV,3,3,09,46,29,300,28,5*4B
$GNGSA,A,3,06,11,12,24,25,28,29,31,32,,,,0.6,0.4,0.5,1*30
$PSSGR,GSA,A,3,06,11,24,25,28,32,,,,,,,0.6,0.4,0.5,1,8*4E
$GNGSA,A,3,03,05,09,12,24,26,31,33,,,,,0.6,0.4,0.5,3*38
$PSSGR,GSA,A,3,305,309,324,326,331,333,,,,,,,0.6,0.4,0.5,3,1*45
$GNGSA,A,3,10,11,19,20,23,27,28,37,38,43,46,,0.6,0.4,0.5,4*3C
$PSSGR,GSA,A,3,220,223,228,237,238,243,246,,,,,,0.6,0.4,0.5,4,5*7B
$GNVTG,22.0,T,19.0,M,3.0,N,5.5,K,E*32
$GNDTM,W84,,0000.000000,N,00000.000000,E,0.000,W84*41
$GNRMC,085004.00,A,4338.393523,N,00701.862562,E,3.0,22.0,020424,3.0,E,E,V*66
$GNGNS,085004.00,4338.393523,N,00701.862562,E,EEEEEE,28,0.4,196.8,49.7,,,V*23
$GNGGA,085004.00,4338.393523,N,00701.862562,E,6,12,0.4,196.8,M,49.7,M,,*7D
$PSMSG,magcal=PASS,bluesky=0*00
$GPGSV,3,1,10,06,15,040,39,11,29,077,34,12,56,062,46,24,23,143,35,1*66
$GPGSV,3,2,10,25,75,344,37,28,34,310,41,29,49,207,39,31,07,312,29,1*6B
$GPGSV,3,3,10,32,36,259,45,36,00,000,42,1*6D
$GPGSV,2,1,06,06,15,040,34,11,29,077,29,24,23,143,25,25,75,344,26,8*6D
$GPGSV,2,2,06,28,34,310,32,32,36,259,34,8*68
$GAGSV,3,1,10,03,10,327,26,05,36,280,38,09,29,216,32,10,03,170,28,7*79
$GAGSV,3,2,10,12,17,152,25,24,53,289,43,25,05,271,28,26,19,043,42,7*72
$GAGSV,3,3,10,31,64,054,39,33,35,095,43,7*74
$GAGSV,2,1,08,03,10,327,22,05,36,280,32,09,29,216,26,12,17,152,19,1*79
$GAGSV,2,2,08,24,53,289,30,26,19,043,34,31,64,054,31,33,35,095,30,1*7B
$GBGSV,4,1,14,60,04,101,29,46,29,300,37,43,34,052,41,38,07,062,35,1*7D
$GBGSV,4,2,14,37,82,004,39,28,57,146,41,27,22,190,41,23,36,109,44,1*7F
$GBGSV,4,3,14,20,08,251,36,19,11,297,35,13,05,087,36,11,15,038,39,1*77
$GBGSV,4,4,14,10,07,061,34,05,17,120,36,1*70
$GBGSV,3,1,09,19,11,297,30,20,08,251,33,23,36,109,43,27,22,190,25,3*75
$GBGSV,3,2,09,28,57,146,43,37,82,004,43,38,07,062,36,43,34,052,43,3*70
$GBGSV,3,3,09,46,29,300,39,3*4D
$GBGSV,3,1,09,19,11,297,30,20,08,251,30,23,36,109,28,27,22,190,18,5*73
$GBGSV,3,2,09,28,57,146,27,37,82,004,33,38,07,062,28,43,34,052,29,5*70
$GBGSV,3,3,09,46,29,300,30,5*42
$GNGSA,A,3,06,11,12,24,25,28,29,31,32,,,,0.6,0.4,0.5,1*30
$PSSGR,GSA,A,3,06,11,24,25,28,32,,,,,,,0.6,0.4,0.5,1,8*4E
$GNGSA,A,3,03,05,09,12,24,26,31,33,,,,,0.6,0.4,0.5,3*38
$PSSGR,GSA,A,3,305,309,324,326,331,333,,,,,,,0.6,0.4,0.5,3,1*45
$GNGSA,A,3,10,11,19,20,23,27,28,37,38,43,46,,0.6,0.4,0.5,4*3C
$PSSGR,GSA,A,3,219,220,223,228,237,238,243,246,,,,,0.6,0.4,0.5,4,5*41
$GNVTG,16.6,T,13.6,M,2.9,N,5.4,K,E*36
$GNDTM,W84,,0000.000000,N,00000.000000,E,0.000,W84*41
$GNRMC,085005.00,A,4338.394301,N,00701.862917,E,2.9,16.6,020424,3.0,E,E,V*61
$GNGNS,085005.00,4338.394301,N,00701.862917,E,EEEEEE,28,0.4,196.8,49.7,,,V*2D
$GNGGA,085005.00,4338.394301,N,00701.862917,E,6,12,0.4,196.8,M,49.7,M,,*73
$PSMSG,magcal=PASS,bluesky=0*00
$GPGSV,3,1,10,06,15,040,41,11,29,077,40,12,56,062,45,24,23,143,34,1*68
$GPGSV,3,2,10,25,75,344,41,28,34,310,40,29,49,207,40,31,07,312,27,1*6B
$GPGSV,3,3,10,32,36,259,45,36,00,000,42,1*6D
$GPGSV,2,1,06,06,15,040,33,11,29,077,30,24,23,143,23,25,75,344,33,8*60
$GPGSV,2,2,06,28,34,310,33,32,36,259,35,8*68
$GAGSV,3,1,10,03,10,327,27,05,36,280,39,09,29,216,27,10,03,170,28,7*7D
$GAGSV,3,2,10,12,17,152,22,24,53,289,41,25,05,271,28,26,19,043,41,7*74
$GAGSV,3,3,10,31,64,054,41,33,35,095,39,7*76
$GAGSV,2,1,08,03,10,327,17,05,36,280,31,09,29,216,23,12,17,152,19,1*79
$GAGSV,2,2,08,24,53,289,27,26,19,043,33,31,64,054,28,33,35,095,28,1*7B
$GBGSV,4,1,14,60,04,101,29,46,29,300,37,43,34,052,41,38,07,062,35,1*7D
$GBGSV,4,2,14,37,82,004,39,28,57,146,41,27,22,190,41,23,36,109,44,1*7F
$GBGSV,4,3,14,20,08,251,36,19,11,297,35,13,05,087,36,11,15,038,37,1*79
$GBGSV,4,4,14,10,07,061,38,05,17,120,36,1*7C
$GBGSV,3,1,09,19,11,297,32,20,08,251,28,23,36,109,42,27,22,190,26,3*7F
$GBGSV,3,2,09,28,57,146,42,37,82,004,40,38,07,062,39,43,34,052,43,3*7D
$GBGSV,3,3,09,46,29,300,39,3*4D
$GBGSV,3,1,09,19,11,297,30,20,08,251,30,23,36,109,30,27,22,190,18,5*7A
$GBGSV,3,2,09,28,57,146,31,37,82,004,29,38,07,062,31,43,34,052,23,5*7E
$GBGSV,3,3,09,46,29,300,29,5*4A
$GNGSA,A,3,06,11,12,24,25,28,29,31,32,,,,0.6,0.4,0.5,1*30
$PSSGR,GSA,A,3,06,11,24,25,28,32,,,,,,,0.6,0.4,0.5,1,8*4E
$GNGSA,A,3,03,05,09,12,24,26,31,33,,,,,0.6,0.4,0.5,3*38
$PSSGR,GSA,A,3,305,309,324,326,331,333,,,,,,,0.6,0.4,0.5,3,1*45
$GNGSA,A,3,10,11,19,20,23,27,28,37,38,43,46,,0.6,0.4,0.5,4*3C
$PSSGR,GSA,A,3,219,220,223,228,237,238,243,246,,,,,0.6,0.4,0.5,4,5*41
$GNVTG,11.2,T,8.2,M,3.2,N,5.9,K,E*0C
$GNDTM,W84,,0000.000000,N,00000.000000,E,0.000,W84*41
$GNRMC,085006.00,A,4338.395157,N,00701.863091,E,3.2,11.2,020424,3.0,E,E,V*6D
$GNGNS,085006.00,4338.395157,N,00701.863091,E,EEEEEE,28,0.4,196.6,49.7,,,V*26
$GNGGA,085006.00,4338.395157,N,00701.863091,E,6,12,0.4,196.6,M,49.7,M,,*78
$PSMSG,magcal=PASS,bluesky=0*00
$GPGSV,3,1,10,06,15,040,41,11,29,077,41,12,56,062,45,24,23,143,33,1*6E
$GPGSV,3,2,10,25,75,344,37,28,34,310,39,29,49,207,42,31,07,312,28,1*69
$GPGSV,3,3,10,32,36,259,47,36,00,000,40,1*6D
$GPGSV,2,1,06,06,15,040,37,11,29,077,31,24,23,143,24,25,75,344,31,8*60
$GPGSV,2,2,06,28,34,310,33,32,36,259,37,8*6A
$GAGSV,3,1,10,03,10,327,28,05,36,280,40,09,29,216,29,10,03,170,28,7*72
$GAGSV,3,2,10,12,17,152,26,24,53,289,40,25,05,271,28,26,19,043,39,7*7E
$GAGSV,3,3,10,31,64,054,42,33,35,095,38,7*74
$GAGSV,2,1,08,03,10,327,24,05,36,280,37,09,29,216,21,12,17,152,20,1*77
$GAGSV,2,2,08,24,53,289,28,26,19,043,33,31,64,054,29,33,35,095,29,1*74
$GBGSV,4,1,14,60,04,101,29,46,29,300,37,43,34,052,41,38,07,062,35,1*7D
$GBGSV,4,2,14,37,82,004,39,28,57,146,41,27,22,190,41,23,36,109,44,1*7F
$GBGSV,4,3,14,20,08,251,36,19,11,297,35,13,05,087,36,11,15,038,40,1*79
$GBGSV,4,4,14,10,07,061,36,05,17,120,36,1*72
$GBGSV,3,1,09,19,11,297,32,20,08,251,31,23,36,109,40,27,22,190,28,3*7B
$GBGSV,3,2,09,28,57,146,43,37,82,004,40,38,07,062,38,43,34,052,39,3*70
$GBGSV,3,3,09,46,29,300,36,3*42
$GBGSV,3,1,09,19,11,297,27,20,08,251,23,23,36,109,29,27,22,190,22,5*7F
$GBGSV,3,2,09,28,57,146,31,37,82,004,27,38,07,062,30,43,34,052,25,5*77
$GBGSV,3,3,09,46,29,300,30,5*42
$GNGSA,A,3,06,11,12,24,25,28,29,31,32,,,,0.6,0.4,0.5,1*30
$PSSGR,GSA,A,3,06,11,24,25,28,32,,,,,,,0.6,0.4,0.5,1,8*4E
$GNGSA,A,3,03,05,09,12,24,26,31,33,,,,,0.6,0.4,0.5,3*38
$PSSGR,GSA,A,3,305,309,324,326,331,333,,,,,,,0.6,0.4,0.5,3,1*45
$GNGSA,A,3,10,11,19,20,23,27,28,37,38,43,46,,0.6,0.4,0.5,4*3C
$PSSGR,GSA,A,3,219,220,223,228,237,238,243,246,,,,,0.6,0.4,0.5,4,5*41
$GNVTG,11.8,T,8.8,M,3.1,N,5.8,K,E*0E
$GNDTM,W84,,0000.000000,N,00000.000000,E,0.000,W84*41
$GNRMC,085007.00,A,4338.396023,N,00701.863249,E,3.1,11.8,020424,3.0,E,E,V*63
$GNGNS,085007.00,4338.396023,N,00701.863249,E,EEEEEE,28,0.4,196.5,49.7,,,V*22
$GNGGA,085007.00,4338.396023,N,00701.863249,E,6,12,0.4,196.5,M,49.7,M,,*7C
$PSMSG,magcal=PASS,bluesky=0*00
$GPGSV,3,1,10,06,15,040,38,11,29,077,43,12,56,062,46,24,23,143,32,1*60
$GPGSV,3,2,10,25,75,344,41,28,34,310,44,29,49,207,41,31,07,312,28,1*61
$GPGSV,3,3,10,32,36,259,47,36,00,000,39,1*63
$GPGSV,2,1,06,06,15,040,33,11,29,077,32,24,23,143,25,25,75,344,33,8*64
$GPGSV,2,2,06,28,34,310,36,32,36,259,38,8*60
$GAGSV,3,1,10,03,10,327,27,05,36,280,39,09,29,216,30,10,03,170,28,7*7B
$GAGSV,3,2,10,12,17,152,27,24,53,289,35,25,05,271,28,26,19,043,35,7*71
$GAGSV,3,3,10,31,64,054,42,33,35,095,38,7*74
$GAGSV,2,1,08,03,10,327,26,05,36,280,37,09,29,216,22,12,17,152,20,1*76
$GAGSV,2,2,08,24,53,289,26,26,19,043,34,31,64,054,29,33,35,095,32,1*77
$GBGSV,4,1,14,60,04,101,29,46,29,300,37,43,34,052,41,38,07,062,35,1*7D
$GBGSV,4,2,14,37,82,004,39,28,57,146,41,27,22,190,41,23,36,109,44,1*7F
$GBGSV,4,3,14,20,08,251,36,19,11,297,35,13,05,087,36,11,15,038,40,1*79
$GBGSV,4,4,14,10,07,061,36,05,17,120,36,1*72
$GBGSV,3,1,09,19,11,297,28,20,08,251,27,23,36,109,41,27,22,190,28,3*76
$GBGSV,3,2,09,28,57,146,43,37,82,004,41,38,07,062,39,43,34,052,39,3*70
$GBGSV,3,3,09,46,29,300,32,3*46
$GBGSV,3,1,09,19,11,297,25,20,08,251,24,23,36,109,30,27,22,190,22,5*72
$GBGSV,3,2,09,28,57,146,31,37,82,004,30,38,07,062,29,43,34,052,27,5*7B
$GBGSV,3,3,09,46,29,300,28,5*4B
$GNGSA,A,3,06,11,12,24,25,28,29,31,32,,,,0.6,0.4,0.5,1*30
$PSSGR,GSA,A,3,06,11,24,25,28,32,,,,,,,0.6,0.4,0.5,1,8*4E
$GNGSA,A,3,03,05,09,12,24,26,31,33,,,,,0.6,0.4,0.5,3*38
$PSSGR,GSA,A,3,303,305,309,324,326,331,333,,,,,,0.6,0.4,0.5,3,1*75
$GNGSA,A,3,10,11,19,20,23,27,28,37,38,43,46,,0.6,0.4,0.5,4*3C
$PSSGR,GSA,A,3,219,220,223,228,237,238,243,246,,,,,0.6,0.4,0.5,4,5*41
$GNVTG,16.4,T,13.4,M,2.5,N,4.7,K,E*38
$GNDTM,W84,,0000.000000,N,00000.000000,E,0.000,W84*41
$GNRMC,085008.00,A,4338.396704,N,00701.863458,E,2.5,16.4,020424,3.0,E,E,V*66
$GNGNS,085008.00,4338.396704,N,00701.863458,E,EEEEEE,28,0.4,196.6,49.7,,,V*2A
$GNGGA,085008.00,4338.396704,N,00701.863458,E,6,12,0.4,196.6,M,49.7,M,,*74
$PSMSG,magcal=PASS,bluesky=0*00
$GPGSV,3,1,10,06,15,040,39,11,29,077,46,12,56,062,46,24,23,143,32,1*64
$GPGSV,3,2,10,25,75,344,45,28,34,310,41,29,49,207,43,31,07,312,31,1*6A
$GPGSV,3,3,10,32,36,259,46,36,00,000,41,1*6D
$GPGSV,2,1,06,06,15,040,30,11,29,077,32,24,23,143,21,25,75,344,35,8*65
$GPGSV,2,2,06,28,34,310,34,32,36,259,39,8*63
$GAGSV,3,1,10,03,10,327,30,05,36,280,36,09,29,216,30,10,03,170,28,7*72
$GAGSV,3,2,10,12,17,152,26,24,53,289,35,25,05,271,28,26,19,043,35,7*70
$GAGSV,3,3,10,31,64,054,41,33,35,095,42,7*7A
$GAGSV,2,1,08,03,10,327,20,05,36,280,40,09,29,216,22,12,17,152,20,1*70
$GAGSV,2,2,08,24,53,289,26,26,19,043,31,31,64,054,30,33,35,095,34,1*7C
$GBGSV,4,1,14,60,04,101,29,46,29,300,37,43,34,052,41,38,07,062,35,1*7D
$GBGSV,4,2,14,37,82,004,39,28,57,146,41,27,22,190,41,23,36,109,44,1*7F
$GBGSV,4,3,14,20,08,251,36,19,11,297,35,13,05,087,36,11,15,038,36,1*78
$GBGSV,4,4,14,10,07,061,38,05,17,120,36,1*7C
$GBGSV,3,1,09,19,11,297,27,20,08,251,28,23,36,109,44,27,22,190,27,3*7C
$GBGSV,3,2,09,28,57,146,43,37,82,004,44,38,07,062,41,43,34,052,41,3*75
$GBGSV,3,3,09,46,29,300,38,3*4C
$GBGSV,3,1,09,19,11,297,25,20,08,251,27,23,36,109,26,27,22,190,22,5*76
$GBGSV,3,2,09,28,57,146,31,37,82,004,27,38,07,062,28,43,34,052,28,5*73
$GBGSV,3,3,09,46,29,300,28,5*4B
$GNGSA,A,3,06,11,12,24,25,28,29,31,32,,,,0.6,0.4,0.5,1*30
$PSSGR,GSA,A,3,06,11,24,25,28,32,,,,,,,0.6,0.4,0.5,1,8*4E
$GNGSA,A,3,03,05,09,12,24,26,31,33,,,,,0.6,0.4,0.5,3*38
$PSSGR,GSA,A,3,303,305,309,324,326,331,333,,,,,,0.6,0.4,0.5,3,1*75
$GNGSA,A,3,10,11,19,20,23,27,28,37,38,43,46,,0.6,0.4,0.5,4*3C
$PSSGR,GSA,A,3,219,220,223,228,237,238,243,246,,,,,0.6,0.4,0.5,4,5*41
$GNVTG,18.7,T,15.7,M,2.2,N,4.1,K,E*31
$GNDTM,W84,,0000.000000,N,00000.000000,E,0.000,W84*41
$GNRMC,085009.00,A,4338.397235,N,00701.863694,E,2.2,18.7,020424,3.0,E,E,V*69
$GNGNS,085009.00,4338.397235,N,00701.863694,E,EEEEEE,28,0.4,196.7,49.7,,,V*2E
$GNGGA,085009.00,4338.397235,N,00701.863694,E,6,12,0.4,196.7,M,49.7,M,,*70
$PSMSG,magcal=PASS,bluesky=0*00
$GPGSV,3,1,09,06,15,040,37,11,29,077,48,12,56,062,46,25,75,344,44,1*6A
$GPGSV,3,2,09,28,34,310,39,29,49,207,42,31,07,312,27,32,36,259,48,1*6A
$GPGSV,3,3,09,36,00,000,39,1*52
$GPGSV,2,1,06,06,15,040,34,11,29,077,31,24,23,143,28,25,75,344,35,8*6B
$GPGSV,2,2,06,28,34,310,29,32,36,259,40,8*61
$GAGSV,3,1,10,03,10,327,26,05,36,280,38,09,29,216,32,10,03,170,28,7*79
$GAGSV,3,2,10,12,17,152,27,24,53,289,36,25,05,271,28,26,19,043,40,7*70
$GAGSV,3,3,10,31,64,054,42,33,35,095,44,7*7F
$GAGSV,2,1,08,03,10,327,20,05,36,280,36,09,29,216,21,12,17,152,22,1*70
$GAGSV,2,2,08,24,53,289,21,26,19,043,30,31,64,054,29,33,35,095,32,1*74
$GBGSV,4,1,14,60,04,101,29,46,29,300,37,43,34,052,41,38,07,062,35,1*7D
$GBGSV,4,2,14,37,82,004,39,28,57,146,41,27,22,190,41,23,36,109,44,1*7F
$GBGSV,4,3,14,20,08,251,36,19,11,297,35,13,05,087,36,11,15,038,39,1*77
$GBGSV,4,4,14,10,07,061,37,05,17,120,36,1*73
$GBGSV,3,1,09,19,11,297,33,20,08,251,24,23,36,109,42,27,22,190,28,3*7C
$GBGSV,3,2,09,28,57,146,43,37,82,004,45,38,07,062,39,43,34,052,45,3*7F
$GBGSV,3,3,09,46,29,300,39,3*4D
$GBGSV,3,1,09,19,11,297,22,20,08,251,27,23,36,109,25,27,22,190,18,5*7B
$GBGSV,3,2,09,28,57,146,30,37,82,004,32,38,07,062,29,43,34,052,23,5*7C
$GBGSV,3,3,09,46,29,300,32,5*40
$GNGSA,A,3,06,11,12,24,25,28,29,31,32,,,,0.6,0.4,0.5,1*30
$PSSGR,GSA,A,3,06,11,24,25,28,32,,,,,,,0.6,0.4,0.5,1,8*4E
$GNGSA,A,3,03,05,09,12,24,26,31,33,,,,,0.6,0.4,0.5,3*38
$PSSGR,GSA,A,3,303,305,309,312,324,326,331,333,,,,,0.6,0.4,0.5,3,1*45
$GNGSA,A,3,10,11,19,20,23,27,28,37,38,43,46,,0.6,0.4,0.5,4*3C
$PSSGR,GSA,A,3,219,220,223,228,237,238,243,246,,,,,0.6,0.4,0.5,4,5*41
$GNVTG,12.7,T,9.7,M,2.5,N,4.6,K,E*06
$GNDTM,W84,,0000.000000,N,00000.000000,E,0.000,W84*41
$GNRMC,085010.00,A,4338.397876,N,00701.863857,E,2.5,12.7,020424,3.0,E,E,V*60
$GNGNS,085010.00,4338.397876,N,00701.863857,E,EEEEEE,28,0.4,197.1,49.7,,,V*2D
$GNGGA,085010.00,4338.397876,N,00701.863857,E,6,12,0.4,197.1,M,49.7,M,,*73
$PSMSG,magcal=PASS,bluesky=0*00
$GPGSV,3,1,09,06,15,040,35,11,29,077,48,12,56,062,47,25,75,344,47,1*6A
$GPGSV,3,2,09,28,34,310,37,29,49,207,40,31,07,312,30,32,36,259,48,1*60
$GPGSV,3,3,09,36,00,000,37,1*5C
$GPGSV,2,1,06,06,15,040,35,11,29,077,35,24,23,143,25,25,75,344,36,8*60
$GPGSV,2,2,06,28,34,310,26,32,36,259,41,8*6F
$GAGSV,3,1,10,03,10,327,27,05,36,280,39,09,29,216,30,10,03,170,28,7*7B
$GAGSV,3,2,10,12,17,152,27,24,53,289,35,25,05,271,28,26,19,043,28,7*7D
$GAGSV,3,3,10,31,64,054,43,33,35,095,44,7*7E
$GAGSV,2,1,08,03,10,327,20,05,36,280,31,09,29,216,21,12,17,152,22,1*77
$GAGSV,2,2,08,24,53,289,28,26,19,043,31,31,64,054,27,33,35,095,33,1*73
$GBGSV,4,1,14,60,04,101,29,46,29,300,37,43,34,052,41,38,07,062,35,1*7D
$GBGSV,4,2,14,37,82,004,39,28,57,146,41,27,22,190,41,23,36,109,44,1*7F
$GBGSV,4,3,14,20,08,251,36,19,11,297,35,13,05,087,36,11,15,038,38,1*76
$GBGSV,4,4,14,10,07,061,32,05,17,120,36,1*76
$GBGSV,3,1,09,19,11,297,32,20,08,251,26,23,36,109,42,27,22,190,27,3*70
$GBGSV,3,2,09,28,57,146,44,37,82,004,46,38,07,062,33,43,34,052,45,3*71
$GBGSV,3,3,09,46,29,300,37,3*43
$GBGSV,3,1,09,19,11,297,29,20,08,251,20,23,36,109,30,27,22,190,23,5*7B
$GBGSV,3,2,09,28,57,146,31,37,82,004,35,38,07,062,26,43,34,052,25,5*73
$GBGSV,3,3,09,46,29,300,34,5*46
$GNGSA,A,3,06,11,12,24,25,28,29,31,32,,,,0.6,0.4,0.5,1*30
$PSSGR,GSA,A,3,06,11,24,25,28,32,,,,,,,0.6,0.4,0.5,1,8*4E
$GNGSA,A,3,03,05,09,12,24,26,31,33,,,,,0.6,0.4,0.5,3*38
$PSSGR,GSA,A,3,303,305,309,312,324,326,331,333,,,,,0.6,0.4,0.5,3,1*45
$GNGSA,A,3,10,11,19,20,23,27,28,37,38,43,46,,0.6,0.4,0.5,4*3C
$PSSGR,GSA,A,3,219,220,223,227,228,237,238,243,246,,,,0.6,0.4,0.5,4,5*76
$GNVTG,13.8,T,10.8,M,1.9,N,3.6,K,E*37
$GNDTM,W84,,0000.000000,N,00000.000000,E,0.000,W84*41
$GNRMC,085011.00,A,4338.398397,N,00701.864002,E,1.9,13.8,020424,3.0,E,E,V*64
$GNGNS,085011.00,4338.398397,N,00701.864002,E,EEEEEE,28,0.4,197.0,49.7,,,V*29
$GNGGA,085011.00,4338.398397,N,00701.864002,E,6,12,0.4,197.0,M,49.7,M,,*77
$PSMSG,magcal=PASS,bluesky=0*00
$GPGSV,3,1,10,06,15,040,41,11,29,077,47,12,56,062,47,24,23,143,32,1*6B
$GPGSV,3,2,10,25,75,344,48,28,34,310,34,29,49,207,40,31,07,312,26,1*60
$GPGSV,3,3,10,32,36,259,49,36,00,000,40,1*63
$GPGSV,2,1,06,06,15,040,36,11,29,077,33,24,23,143,23,25,75,344,37,8*62
$GPGSV,2,2,06,28,34,310,24,32,36,259,41,8*6D
$GAGSV,3,1,10,03,10,327,26,05,36,280,38,09,29,216,27,10,03,170,28,7*7D
$GAGSV,3,2,10,12,17,152,27,24,53,289,40,25,05,271,28,26,19,043,37,7*71
$GAGSV,3,3,10,31,64,054,42,33,35,095,45,7*7E
$GAGSV,2,1,08,03,10,327,19,05,36,280,33,09,29,216,22,12,17,152,21,1*7F
$GAGSV,2,2,08,24,53,289,29,26,19,043,35,31,64,054,24,33,35,095,31,1*77
$GBGSV,4,1,14,60,04,101,29,46,29,300,37,43,34,052,41,38,07,062,35,1*7D
$GBGSV,4,2,14,37,82,004,39,28,57,146,41,27,22,190,41,23,36,109,44,1*7F
$GBGSV,4,3,14,20,08,251,36,19,11,297,35,13,05,087,36,11,15,038,33,1*7D
$GBGSV,4,4,14,10,07,061,32,05,17,120,36,1*76
$GBGSV,3,1,09,19,11,297,31,20,08,251,29,23,36,109,43,27,22,190,27,3*7D
$GBGSV,3,2,09,28,57,146,44,37,82,004,47,38,07,062,34,43,34,052,41,3*73
$GBGSV,3,3,09,46,29,300,36,3*42
$GBGSV,3,1,09,19,11,297,33,20,08,251,20,23,36,109,31,27,22,190,24,5*76
$GBGSV,3,2,09,28,57,146,29,37,82,004,32,38,07,062,22,43,34,052,25,5*79
$GBGSV,3,3,09,46,29,300,34,5*46
$GNGSA,A,3,06,11,12,24,25,28,29,31,32,,,,0.6,0.4,0.5,1*30
$PSSGR,GSA,A,3,06,11,24,25,28,32,,,,,,,0.6,0.4,0.5,1,8*4E
$GNGSA,A,3,03,05,09,12,24,26,31,33,,,,,0.6,0.4,0.5,3*38
$PSSGR,GSA,A,3,303,305,309,312,324,326,331,333,,,,,0.6,0.4,0.5,3,1*45
$GNGSA,A,3,10,11,19,20,23,27,28,37,38,43,46,,0.6,0.4,0.5,4*3C
$PSSGR,GSA,A,3,219,220,223,227,228,237,238,243,246,,,,0.6,0.4,0.5,4,5*76
$GNVTG,14.5,T,11.5,M,1.9,N,3.6,K,E*31
$GNDTM,W84,,0000.000000,N,00000.000000,E,0.000,W84*41
$GNRMC,085012.00,A,4338.398900,N,00701.864190,E,1.9,14.5,020424,3.0,E,E,V*63
$GNGNS,085012.00,4338.398900,N,00701.864190,E,EEEEEE,28,0.4,196.9,49.7,,,V*2C
$GNGGA,085012.00,4338.398900,N,00701.864190,E,6,12,0.4,196.9,M,49.7,M,,*72
$PSMSG,magcal=PASS,bluesky=0*00
$GPGSV,3,1,10,06,15,040,40,11,29,077,44,12,56,062,45,24,23,143,35,1*6C
$GPGSV,3,2,10,25,75,344,48,28,34,310,35,29,49,207,38,31,07,312,29,1*61
$GPGSV,3,3,10,32,36,259,45,36,00,000,39,1*61
$GPGSV,2,1,06,06,15,040,33,11,29,077,34,24,23,143,21,25,75,344,38,8*6D
$GPGSV,2,2,06,28,34,310,26,32,36,259,33,8*6A
$GAGSV,3,1,10,03,10,327,23,05,36,280,36,09,29,216,29,10,03,170,28,7*78
$GAGSV,3,2,10,12,17,152,24,24,53,289,39,25,05,271,28,26,19,043,36,7*7D
$GAGSV,3,3,10,31,64,054,41,33,35,095,43,7*7B
$GAGSV,2,1,08,03,10,327,24,05,36,280,26,09,29,216,26,12,17,152,24,1*74
$GAGSV,2,2,08,24,53,289,32,26,19,043,34,31,64,054,30,33,35,095,30,1*78
$GBGSV,4,1,14,60,04,101,29,46,29,300,37,43,34,052,41,38,07,062,35,1*7D
$GBGSV,4,2,14,37,82,004,39,28,57,146,41,27,22,190,41,23,36,109,44,1*7F
$GBGSV,4,3,14,20,08,251,36,19,11,297,35,13,05,087,36,11,15,038,39,1*77
$GBGSV,4,4,14,10,07,061,32,05,17,120,36,1*76
$GBGSV,3,1,09,19,11,297,32,20,08,251,26,23,36,109,45,27,22,190,27,3*77
$GBGSV,3,2,09,28,57,146,44,37,82,004,46,38,07,062,36,43,34,052,41,3*70
$GBGSV,3,3,09,46,29,300,39,3*4D
$GBGSV,3,1,09,19,11,297,32,20,08,251,20,23,36,109,34,27,22,190,25,5*73
$GBGSV,3,2,09,28,57,146,29,37,82,004,31,38,07,062,25,43,34,052,27,5*7F
$GBGSV,3,3,09,46,29,300,38,5*4A
$GNGSA,A,3,06,11,12,24,25,28,29,31,32,,,,0.6,0.4,0.5,1*30
$PSSGR,GSA,A,3,06,11,24,25,28,32,,,,,,,0.6,0.4,0.5,1,8*4E
$GNGSA,A,3,03,05,09,12,24,26,31,33,,,,,0.6,0.4,0.5,3*38
$PSSGR,GSA,A,3,303,305,309,312,324,326,331,333,,,,,0.6,0.4,0.5,3,1*45
$GNGSA,A,3,10,11,19,20,23,27,28,37,38,43,46,,0.6,0.4,0.5,4*3C
$PSSGR,GSA,A,3,219,220,223,227,228,237,238,243,246,,,,0.6,0.4,0.5,4,5*76
$GNVTG,8.8,T,5.8,M,2.1,N,3.9,K,E*3D
$GNDTM,W84,,0000.000000,N,00000.000000,E,0.000,W84*41
$GNRMC,085013.00,A,4338.399495,N,00701.864309,E,2.1,8.8,020424,3.0,E,E,V*5B
$GNGNS,085013.00,4338.399495,N,00701.864309,E,EEEEEE,28,0.4,196.8,49.7,,,V*2E
$GNGGA,085013.00,4338.399495,N,00701.864309,E,6,12,0.4,196.8,M,49.7,M,,*70
$PSMSG,magcal=PASS,bluesky=0*00
$GPGSV,3,1,10,06,15,040,45,11,29,077,40,12,56,062,44,24,23,143,34,1*6D
$GPGSV,3,2,10,25,75,344,48,28,34,310,38,29,49,207,35,31,07,312,29,1*61
$GPGSV,3,3,10,32,36,259,42,36,00,000,35,1*6A
$GPGSV,2,1,06,06,15,040,33,11,29,077,31,24,23,143,22,25,75,344,32,8*61
$GPGSV,2,2,06,28,34,310,27,32,36,259,31,8*69
$GAGSV,3,1,10,03,10,327,27,05,36,280,36,09,29,216,27,10,03,170,28,7*72
$GAGSV,3,2,10,12,17,152,27,24,53,289,42,25,05,271,28,26,19,043,36,7*72
$GAGSV,3,3,10,31,64,054,40,33,35,095,41,7*78
$GAGSV,2,1,08,03,10,327,24,05,36,280,28,09,29,216,26,12,17,152,24,1*7A
$GAGSV,2,2,08,24,53,289,26,26,19,043,32,31,64,054,33,33,35,095,34,1*7C
$GBGSV,4,1,14,60,04,101,29,46,29,300,37,43,34,052,41,38,07,062,35,1*7D
$GBGSV,4,2,14,37,82,004,39,28,57,146,41,27,22,190,41,23,36,109,44,1*7F
$GBGSV,4,3,14,20,08,251,36,19,11,297,35,13,05,087,36,11,15,038,40,1*79
$GBGSV,4,4,14,10,07,061,33,05,17,120,36,1*77
$GBGSV,3,1,09,19,11,297,35,20,08,251,28,23,36,109,44,27,22,190,28,3*70
$GBGSV,3,2,09,28,57,146,41,37,82,004,43,38,07,062,36,43,34,052,42,3*73
$GBGSV,3,3,09,46,29,300,41,3*42
$GBGSV,3,1,09,19,11,297,31,20,08,251,26,23,36,109,36,27,22,190,27,5*76
$GBGSV,3,2,09,28,57,146,29,37,82,004,33,38,07,062,21,43,34,052,29,5*77
$GBGSV,3,3,09,46,29,300,32,5*40
$GNGSA,A,3,06,11,12,24,25,28,29,31,32,,,,0.6,0.4,0.5,1*30
$PSSGR,GSA,A,3,06,11,24,25,28,32,,,,,,,0.6,0.4,0.5,1,8*4E
$GNGSA,A,3,03,05,09,12,24,26,31,33,,,,,0.6,0.4,0.5,3*38
$PSSGR,GSA,A,3,305,309,312,324,326,331,333,,,,,,0.6,0.4,0.5,3,1*75
$GNGSA,A,3,10,11,19,20,23,27,28,37,38,43,46,,0.6,0.4,0.5,4*3C
$PSSGR,GSA,A,3,219,220,223,227,228,237,238,243,246,,,,0.6,0.4,0.5,4,5*76
$GNVTG,7.5,T,4.5,M,2.0,N,3.8,K,E*33
$GNDTM,W84,,0000.000000,N,00000.000000,E,0.000,W84*41
$GNRMC,085014.00,A,4338.400107,N,00701.864462,E,2.0,7.5,020424,3.0,E,E,V*5C
$GNGNS,085014.00,4338.400107,N,00701.864462,E,EEEEEE,28,0.4,196.8,49.7,,,V*2A
$GNGGA,085014.00,4338.400107,N,00701.864462,E,6,12,0.4,196.8,M,49.7,M,,*74
$PSMSG,magcal=PASS,bluesky=0*00
$GPGSV,3,1,10,06,15,040,43,11,29,077,39,12,56,062,42,24,23,143,33,1*64
$GPGSV,3,2,10,25,75,344,44,28,34,310,41,29,49,207,38,31,07,312,28,1*6F
$GPGSV,3,3,10,32,36,259,43,36,00,000,36,1*68
$GPGSV,2,1,06,06,15,040,29,11,29,077,29,24,23,143,27,25,75,344,32,8*66
$GPGSV,2,2,06,28,34,310,31,32,36,259,29,8*67
$GAGSV,3,1,10,03,10,327,30,05,36,280,33,09,29,216,25,10,03,170,28,7*73
$GAGSV,3,2,10,12,17,152,24,24,53,289,35,25,05,271,28,26,19,043,43,7*73
$GAGSV,3,3,10,31,64,054,41,33,35,095,38,7*77
$GAGSV,2,1,08,03,10,327,20,05,36,280,33,09,29,216,26,12,17,152,24,1*74
$GAGSV,2,2,08,24,53,289,28,26,19,043,26,31,64,054,32,33,35,095,36,1*74
$GBGSV,4,1,13,46,29,300,37,43,34,052,41,38,07,062,35,37,82,004,39,1*73
$GBGSV,4,2,13,28,57,146,41,27,22,190,41,23,36,109,44,20,08,251,36,1*71
$GBGSV,4,3,13,19,11,297,35,13,05,087,36,11,15,038,43,10,07,061,32,1*74
$GBGSV,4,4,13,05,17,120,36,1*41
$GBGSV,3,1,09,19,11,297,29,20,08,251,24,23,36,109,40,27,22,190,28,3*75
$GBGSV,3,2,09,28,57,146,38,37,82,004,39,38,07,062,36,43,34,052,40,3*72
$GBGSV,3,3,09,46,29,300,36,3*42
$GBGSV,3,1,09,19,11,297,34,20,08,251,22,23,36,109,36,27,22,190,25,5*75
$GBGSV,3,2,09,28,57,146,26,37,82,004,28,38,07,062,22,43,34,052,30,5*79
$GBGSV,3,3,09,46,29,300,30,5*42
$GNGSA,A,3,06,11,12,24,25,28,29,31,32,,,,0.6,0.4,0.5,1*30
$PSSGR,GSA,A,3,06,11,24,25,28,32,,,,,,,0.6,0.4,0.5,1,8*4E
$GNGSA,A,3,03,05,09,12,24,26,31,33,,,,,0.6,0.4,0.5,3*38
$PSSGR,GSA,A,3,305,309,312,324,326,331,333,,,,,,0.6,0.4,0.5,3,1*75
$GNGSA,A,3,10,11,19,20,23,27,28,37,38,43,46,,0.6,0.4,0.5,4*3C
$PSSGR,GSA,A,3,219,220,223,227,228,237,238,243,246,,,,0.6,0.4,0.5,4,5*76
$GNVTG,5.6,T,2.6,M,2.0,N,3.7,K,E*38
$GNDTM,W84,,0000.000000,N,00000.000000,E,0.000,W84*41
$GNRMC,085015.00,A,4338.400730,N,00701.864558,E,2.0,5.6,020424,3.0,E,E,V*56
$GNGNS,085015.00,4338.400730,N,00701.864558,E,EEEEEE,28,0.4,196.9,49.7,,,V*20
$GNGGA,085015.00,4338.400730,N,00701.864558,E,6,12,0.4,196.9,M,49.7,M,,*7E
$PSMSG,magcal=PASS,bluesky=0*00
$GPGSV,3,1,10,06,15,040,41,11,29,077,38,12,56,062,45,24,23,143,32,1*61
$GPGSV,3,2,10,25,75,344,47,28,34,310,39,29,49,207,35,31,07,312,28,1*6E
$GPGSV,3,3,10,32,36,259,41,36,00,000,41,1*6A
$GPGSV,2,1,06,06,15,040,32,11,29,077,29,24,23,143,32,25,75,344,29,8*62
$GPGSV,2,2,06,28,34,310,28,32,36,259,34,8*63
$GAGSV,3,1,10,03,10,327,27,05,36,280,34,09,29,216,27,10,03,170,28,7*70
$GAGSV,3,2,10,12,17,152,25,24,53,289,36,25,05,271,28,26,19,043,42,7*70
$GAGSV,3,3,10,31,64,054,41,33,35,095,42,7*7A
$GAGSV,2,1,08,03,10,327,25,05,36,280,32,09,29,216,19,12,17,152,23,1*7B
$GAGSV,2,2,08,24,53,289,25,26,19,043,32,31,64,054,32,33,35,095,23,1*78
$GBGSV,4,1,13,46,29,300,37,43,34,052,41,38,07,062,35,37,82,004,39,1*73
$GBGSV,4,2,13,28,57,146,41,27,22,190,41,23,36,109,44,20,08,251,36,1*71
$GBGSV,4,3,13,19,11,297,35,13,05,087,36,11,15,038,40,10,07,061,40,1*72
$GBGSV,4,4,13,05,17,120,36,1*41
$GBGSV,3,1,09,19,11,297,33,20,08,251,23,23,36,109,46,27,22,190,25,3*72
$GBGSV,3,2,09,28,57,146,41,37,82,004,44,38,07,062,42,43,34,052,41,3*74
$GBGSV,3,3,09,46,29,300,40,3*43
$GBGSV,3,1,09,19,11,297,23,20,08,251,25,23,36,109,30,27,22,190,28,5*7F
$GBGSV,3,2,09,28,57,146,24,37,82,004,33,38,07,062,26,43,34,052,32,5*77
$GBGSV,3,3,09,46,29,300,31,5*43
$GNGSA,A,3,06,11,12,24,25,28,29,31,32,,,,0.6,0.4,0.5,1*30
$PSSGR,GSA,A,3,06,11,24,25,28,32,,,,,,,0.6,0.4,0.5,1,8*4E
$GNGSA,A,3,03,05,09,12,24,26,31,33,,,,,0.6,0.4,0.5,3*38
$PSSGR,GSA,A,3,305,309,312,324,326,331,333,,,,,,0.6,0.4,0.5,3,1*75
$GNGSA,A,3,10,11,19,20,23,27,28,37,38,43,46,,0.6,0.4,0.5,4*3C
$PSSGR,GSA,A,3,219,220,223,227,228,237,238,243,246,,,,0.6,0.4,0.5,4,5*76
$GNVTG,8.2,T,5.2,M,2.0,N,3.6,K,E*33
$GNDTM,W84,,0000.000000,N,00000.000000,E,0.000,W84*41
$GNRMC,085016.00,A,4338.401286,N,00701.864649,E,2.0,8.2,020424,3.0,E,E,V*56
$GNGNS,085016.00,4338.401286,N,00701.864649,E,EEEEEE,28,0.4,196.9,49.7,,,V*29
$GNGGA,085016.00,4338.401286,N,00701.864649,E,6,12,0.4,196.9,M,49.7,M,,*77
$PSMSG,magcal=PASS,bluesky=0*00
$GPGSV,3,1,10,06,15,040,39,11,29,077,38,12,56,062,43,24,23,143,34,1*6E
$GPGSV,3,2,10,25,75,344,46,28,34,310,38,29,49,207,37,31,07,312,30,1*65
$GPGSV,3,3,10,32,36,259,38,36,00,000,41,1*64
$GPGSV,2,1,06,06,15,040,33,11,29,077,27,24,23,143,31,25,75,344,27,8*60
$GPGSV,2,2,06,28,34,310,33,32,36,259,37,8*6A
$GAGSV,2,1,08,03,10,327,28,05,36,280,37,09,29,216,27,12,17,152,27,7*7C
$GAGSV,2,2,08,24,53,289,35,26,19,043,40,31,64,054,41,33,35,095,37,7*7B
$GAGSV,2,1,08,03,10,327,21,05,36,280,30,09,29,216,26,12,17,152,29,1*7B
$GAGSV,2,2,08,24,53,289,25,26,19,043,32,31,64,054,28,33,35,095,28,1*78
$GBGSV,1,1,02,11,15,038,39,10,07,061,40,1*74
$GBGSV,3,1,09,19,11,297,33,20,08,251,24,23,36,109,43,27,22,190,27,3*72
$GBGSV,3,2,09,28,57,146,42,37,82,004,44,38,07,062,41,43,34,052,42,3*77
$GBGSV,3,3,09,46,29,300,40,3*43
$GBGSV,3,1,09,19,11,297,21,20,08,251,26,23,36,109,25,27,22,190,28,5*7A
$GBGSV,3,2,09,28,57,146,27,37,82,004,33,38,07,062,26,43,34,052,33,5*75
$GBGSV,3,3,09,46,29,300,32,5*40
$GNGSA,A,3,06,11,12,24,25,28,29,31,32,,,,0.6,0.4,0.5,1*30
$PSSGR,GSA,A,3,06,11,24,25,28,32,,,,,,,0.6,0.4,0.5,1,8*4E
$GNGSA,A,3,03,05,09,12,24,26,31,33,,,,,0.6,0.4,0.5,3*38
$PSSGR,GSA,A,3,305,309,312,324,326,331,333,,,,,,0.6,0.4,0.5,3,1*75
$GNGSA,A,3,10,11,19,20,23,27,28,37,38,43,46,,0.6,0.4,0.5,4*3C
$PSSGR,GSA,A,3,219,220,223,227,228,237,238,243,246,,,,0.6,0.4,0.5,4,5*76
$GNVTG,352.9,T,349.9,M,2.1,N,3.9,K,E*3A
$GNDTM,W84,,0000.000000,N,00000.000000,E,0.000,W84*41
$GNRMC,085017.00,A,4338.401870,N,00701.864528,E,2.1,352.9,020424,3.0,E,E,V*56
$GNGNS,085017.00,4338.401870,N,00701.864528,E,EEEEEE,28,0.4,196.8,49.7,,,V*2E
$GNGGA,085017.00,4338.401870,N,00701.864528,E,6,12,0.4,196.8,M,49.7,M,,*70
$PSMSG,magcal=PASS,bluesky=0*00
$GPGSV,3,1,10,06,15,040,40,11,29,077,41,12,56,062,45,24,23,143,32,1*6E
$GPGSV,3,2,10,25,75,344,42,28,34,310,43,29,49,207,37,31,07,312,27,1*6B
$GPGSV,3,3,10,32,36,259,43,36,00,000,37,1*69
$GPGSV,2,1,06,06,15,040,34,11,29,077,30,24,23,143,29,25,75,344,29,8*66
$GPGSV,2,2,06,28,34,310,32,32,36,259,35,8*69
$GAGSV,2,1,08,03,10,327,31,05,36,280,42,09,29,216,31,12,17,152,23,7*75
$GAGSV,2,2,08,24,53,289,32,26,19,043,43,31,64,054,43,33,35,095,37,7*7D
$GAGSV,2,1,08,03,10,327,21,05,36,280,29,09,29,216,23,12,17,152,29,1*76
$GAGSV,2,2,08,24,53,289,22,26,19,043,32,31,64,054,27,33,35,095,27,1*7F
$GBGSV,1,1,02,11,15,038,41,10,07,061,37,1*7B
$GBGSV,3,1,09,19,11,297,35,20,08,251,25,23,36,109,43,27,22,190,29,3*7B
$GBGSV,3,2,09,28,57,146,39,37,82,004,46,38,07,062,38,43,34,052,44,3*71
$GBGSV,3,3,09,46,29,300,44,3*47
$GBGSV,3,1,09,19,11,297,32,20,08,251,29,23,36,109,24,27,22,190,23,5*7D
$GBGSV,3,2,09,28,57,146,23,37,82,004,27,38,07,062,26,43,34,052,34,5*73
$GBGSV,3,3,09,46,29,300,34,5*46
$GNGSA,A,3,06,11,12,24,25,28,29,31,32,,,,0.6,0.4,0.5,1*30
$PSSGR,GSA,A,3,06,11,24,25,28,32,,,,,,,0.6,0.4,0.5,1,8*4E
$GNGSA,A,3,03,05,09,12,24,26,31,33,,,,,0.6,0.4,0.5,3*38
$PSSGR,GSA,A,3,305,309,312,324,326,331,333,,,,,,0.6,0.4,0.5,3,1*75
$GNGSA,A,3,10,11,19,20,23,27,28,37,38,43,46,,0.6,0.4,0.5,4*3C
$PSSGR,GSA,A,3,219,220,223,227,228,237,238,243,246,,,,0.6,0.4,0.5,4,5*76
$GNVTG,345.5,T,342.5,M,2.0,N,3.6,K,E*39
$GNDTM,W84,,0000.000000,N,00000.000000,E,0.000,W84*41
$GNRMC,085018.00,A,4338.402428,N,00701.864305,E,2.0,345.5,020424,3.0,E,E,V*59
$GNGNS,085018.00,4338.402428,N,00701.864305,E,EEEEEE,28,0.4,196.8,49.7,,,V*2A
$GNGGA,085018.00,4338.402428,N,00701.864305,E,6,12,0.4,196.8,M,49.7,M,,*74
$PSMSG,magcal=PASS,bluesky=0*00
$GPGSV,3,1,10,06,15,040,43,11,29,077,39,12,56,062,44,24,23,143,34,1*65
$GPGSV,3,2,10,25,75,344,47,28,34,310,39,29,49,207,37,31,07,312,26,1*62
$GPGSV,3,3,10,32,36,259,42,36,00,000,33,1*6C
$GPGSV,2,1,06,06,15,040,30,11,29,077,24,24,23,143,28,25,75,344,28,8*67
$GPGSV,2,2,06,28,34,310,33,32,36,259,31,8*6C
$GAGSV,2,1,08,03,10,327,31,05,36,280,41,09,29,216,32,12,17,152,28,7*7E
$GAGSV,2,2,08,24,53,289,31,26,19,043,42,31,64,054,42,33,35,095,36,7*7F
$GAGSV,2,1,08,03,10,327,22,05,36,280,33,09,29,216,28,12,17,152,24,1*78
$GAGSV,2,2,08,24,53,289,21,26,19,043,32,31,64,054,28,33,35,095,28,1*7C
$GBGSV,1,1,02,11,15,038,41,10,07,061,35,1*79
$GBGSV,3,1,09,19,11,297,31,20,08,251,28,23,36,109,38,27,22,190,33,3*75
$GBGSV,3,2,09,28,57,146,39,37,82,004,45,38,07,062,38,43,34,052,45,3*73
$GBGSV,3,3,09,46,29,300,42,3*41
$GBGSV,3,1,09,19,11,297,31,20,08,251,24,23,36,109,31,27,22,190,29,5*7D
$GBGSV,3,2,09,28,57,146,29,37,82,004,27,38,07,062,28,43,34,052,33,5*70
$GBGSV,3,3,09,46,29,300,23,5*40
$GNGSA,A,3,06,11,12,24,25,28,29,31,32,,,,0.6,0.4,0.5,1*30
$PSSGR,GSA,A,3,06,11,24,25,28,32,,,,,,,0.6,0.4,0.5,1,8*4E
$GNGSA,A,3,03,05,09,12,24,26,31,33,,,,,0.6,0.4,0.5,3*38
$PSSGR,GSA,A,3,305,309,312,324,326,331,333,,,,,,0.6,0.4,0.5,3,1*75
$GNGSA,A,3,10,11,19,20,23,27,28,37,38,43,46,,0.6,0.4,0.5,4*3C
$PSSGR,GSA,A,3,219,220,223,227,228,237,238,243,246,,,,0.6,0.4,0.5,4,5*76
$GNVTG,341.8,T,338.8,M,2.0,N,3.7,K,E*31
$GNDTM,W84,,0000.000000,N,00000.000000,E,0.000,W84*41
$GNRMC,085019.00,A,4338.402945,N,00701.864049,E,2.0,341.8,020424,3.0,E,E,V*5C
$GNGNS,085019.00,4338.402945,N,00701.864049,E,EEEEEE,28,0.4,196.9,49.7,,,V*27
$GNGGA,085019.00,4338.402945,N,00701.864049,E,6,12,0.4,196.9,M,49.7,M,,*79
$PSMSG,magcal=PASS,bluesky=0*00
$GPGSV,3,1,10,06,15,040,43,11,29,077,38,12,56,062,44,24,23,143,35,1*65
$GPGSV,3,2,10,25,75,344,47,28,34,310,38,29,49,207,42,31,07,312,29,1*6E
$GPGSV,3,3,10,32,36,259,42,36,00,000,37,1*68
$GPGSV,2,1,06,06,15,040,33,11,29,077,30,24,23,143,28,25,75,344,29,8*60
$GPGSV,2,2,06,28,34,310,33,32,36,259,31,8*6C
$GAGSV,2,1,08,03,10,327,30,05,36,280,42,09,29,216,35,12,17,152,27,7*74
$GAGSV,2,2,08,24,53,289,32,26,19,043,41,31,64,054,40,33,35,095,36,7*7D
$GAGSV,2,1,08,03,10,327,23,05,36,280,26,09,29,216,27,12,17,152,24,1*72
$GAGSV,2,2,08,24,53,289,22,26,19,043,31,31,64,054,34,33,35,095,28,1*71
$GBGSV,1,1,02,11,15,038,41,10,07,061,37,1*7B
$GBGSV,3,1,09,19,11,297,28,20,08,251,27,23,36,109,35,27,22,190,33,3*7F
$GBGSV,3,2,09,28,57,146,40,37,82,004,44,38,07,062,40,43,34,052,42,3*74
$GBGSV,3,3,09,46,29,300,38,3*4C
$GBGSV,3,1,09,19,11,297,30,20,08,251,23,23,36,109,30,27,22,190,31,5*73
$GBGSV,3,2,09,28,57,146,26,37,82,004,30,38,07,062,25,43,34,052,31,5*76
$GBGSV,3,3,09,46,29,300,32,5*40
$GNGSA,A,3,06,11,12,24,25,28,29,31,32,,,,0.6,0.4,0.5,1*30
$PSSGR,GSA,A,3,06,11,24,25,28,32,,,,,,,0.6,0.4,0.5,1,8*4E
$GNGSA,A,3,03,05,09,12,24,26,31,33,,,,,0.6,0.4,0.5,3*38
$PSSGR,GSA,A,3,305,309,312,324,326,331,333,,,,,,0.6,0.4,0.5,3,1*75
$GNGSA,A,3,10,11,19,20,23,27,28,37,38,43,46,,0.6,0.4,0.5,4*3C
$PSSGR,GSA,A,3,219,220,223,227,228,237,238,243,246,,,,0.6,0.4,0.5,4,5*76
$GNVTG,321.2,T,318.2,M,2.6,N,4.8,K,E*3B
$GNDTM,W84,,0000.000000,N,00000.000000,E,0.000,W84*41
$GNRMC,085020.00,A,4338.403526,N,00701.863449,E,2.6,321.2,020424,3.0,E,E,V*57
$GNGNS,085020.00,4338.403526,N,00701.863449,E,EEEEEE,28,0.4,196.7,49.7,,,V*28
$GNGGA,085020.00,4338.403526,N,00701.863449,E,6,12,0.4,196.7,M,49.7,M,,*76
$PSMSG,magcal=PASS,bluesky=0*00
$GPGSV,3,1,10,06,15,040,39,11,29,077,39,12,56,062,47,24,23,143,33,1*6C
$GPGSV,3,2,10,25,75,344,40,28,34,310,35,29,49,207,40,31,07,312,27,1*68
$GPGSV,3,3,10,32,36,259,41,36,00,000,39,1*65
$GPGSV,2,1,06,06,15,040,30,11,29,077,31,24,23,143,33,25,75,344,28,8*69
$GPGSV,2,2,06,28,34,310,29,32,36,259,29,8*6E
$GAGSV,2,1,08,03,10,327,30,05,36,280,35,09,29,216,36,12,17,152,29,7*79
$GAGSV,2,2,08,24,53,289,33,26,19,043,40,31,64,054,43,33,35,095,38,7*70
$GAGSV,2,1,08,03,10,327,26,05,36,280,32,09,29,216,33,12,17,152,24,1*77
$GAGSV,2,2,08,24,53,289,26,26,19,043,27,31,64,054,31,33,35,095,28,1*77
$GBGSV,1,1,02,11,15,038,41,10,07,061,34,1*78
$GBGSV,3,1,09,19,11,297,33,20,08,251,27,23,36,109,35,27,22,190,36,3*70
$GBGSV,3,2,09,28,57,146,43,37,82,004,41,38,07,062,35,43,34,052,42,3*70
$GBGSV,3,3,09,46,29,300,36,3*42
$GBGSV,3,1,09,19,11,297,28,20,08,251,23,23,36,109,24,27,22,190,31,5*7F
$GBGSV,3,2,09,28,57,146,34,37,82,004,32,38,07,062,24,43,34,052,26,5*70
$GBGSV,3,3,09,46,29,300,31,5*43
$GNGSA,A,3,06,11,12,24,25,28,29,31,32,,,,0.6,0.4,0.5,1*30
$PSSGR,GSA,A,3,06,11,24,25,28,32,,,,,,,0.6,0.4,0.5,1,8*4E
$GNGSA,A,3,03,05,09,12,24,26,31,33,,,,,0.6,0.4,0.5,3*38
$PSSGR,GSA,A,3,303,305,309,312,324,326,331,333,,,,,0.6,0.4,0.5,3,1*45
$GNGSA,A,3,10,11,19,20,23,27,28,37,38,43,46,,0.6,0.4,0.5,4*3C
$PSSGR,GSA,A,3,219,220,223,227,228,237,238,243,246,,,,0.6,0.4,0.5,4,5*76
$GNVTG,310.5,T,307.5,M,2.2,N,4.1,K,E*3A
$GNDTM,W84,,0000.000000,N,00000.000000,E,0.000,W84*41
$GNRMC,085021.00,A,4338.403899,N,00701.862702,E,2.2,310.5,020424,3.0,E,E,V*53
$GNGNS,085021.00,4338.403899,N,00701.862702,E,EEEEEE,28,0.4,196.7,49.7,,,V*2D
$GNGGA,085021.00,4338.403899,N,00701.862702,E,6,12,0.4,196.7,M,49.7,M,,*73
$PSMSG,magcal=PASS,bluesky=0*00
$GPGSV,3,1,10,06,15,040,41,11,29,077,40,12,56,062,46,24,23,143,35,1*6A
$GPGSV,3,2,10,25,75,344,38,28,34,310,34,29,49,207,42,31,07,312,29,1*6A
$GPGSV,3,3,10,32,36,259,42,36,00,000,38,1*67
$GPGSV,2,1,06,06,15,040,30,11,29,077,30,24,23,143,32,25,75,344,21,8*60
$GPGSV,2,2,06,28,34,310,30,32,36,259,27,8*68
$GAGSV,2,1,08,03,10,327,29,05,36,280,41,09,29,216,40,12,17,152,30,7*7B
$GAGSV,2,2,08,24,53,289,40,26,19,043,38,31,64,054,43,33,35,095,40,7*74
$GAGSV,2,1,08,03,10,327,26,05,36,280,34,09,29,216,30,12,17,152,23,1*75
$GAGSV,2,2,08,24,53,289,23,26,19,043,29,31,64,054,29,33,35,095,27,1*7A
$GBGSV,1,1,02,11,15,038,41,10,07,061,34,1*78
$GBGSV,3,1,09,19,11,297,35,20,08,251,23,23,36,109,35,27,22,190,34,3*70
$GBGSV,3,2,09,28,57,146,42,37,82,004,36,38,07,062,36,43,34,052,39,3*7E
$GBGSV,3,3,09,46,29,300,31,3*45
$GBGSV,3,1,09,19,11,297,26,20,08,251,22,23,36,109,27,27,22,190,29,5*7A
$GBGSV,3,2,09,28,57,146,29,37,82,004,26,38,07,062,24,43,34,052,30,5*7E
$GBGSV,3,3,09,46,29,300,33,5*41
$GNGSA,A,3,06,11,12,24,25,28,29,31,32,,,,0.6,0.4,0.5,1*30
$PSSGR,GSA,A,3,06,11,24,25,28,32,,,,,,,0.6,0.4,0.5,1,8*4E
$GNGSA,A,3,03,05,09,12,24,26,31,33,,,,,0.6,0.4,0.5,3*38
$PSSGR,GSA,A,3,303,305,309,312,324,326,331,333,,,,,0.6,0.4,0.5,3,1*45
$GNGSA,A,3,10,11,19,20,23,27,28,37,38,43,46,,0.6,0.4,0.5,4*3C
$PSSGR,GSA,A,3,219,220,223,227,228,237,238,243,246,,,,0.6,0.4,0.5,4,5*76
$GNVTG,304.0,T,301.0,M,2.3,N,4.2,K,E*3B
$GNDTM,W84,,0000.000000,N,00000.000000,E,0.000,W84*41
$GNRMC,085022.00,A,4338.404282,N,00701.861912,E,2.3,304.0,020424,3.0,E,E,V*5A
$GNGNS,085022.00,4338.404282,N,00701.861912,E,EEEEEE,28,0.4,196.9,49.7,,,V*2B
$GNGGA,085022.00,4338.404282,N,00701.861912,E,6,12,0.4,196.9,M,49.7,M,,*75
$PSMSG,magcal=PASS,bluesky=0*00
$GPGSV,3,1,10,06,15,040,40,11,29,077,43,12,56,062,45,24,23,143,34,1*6A
$GPGSV,3,2,10,25,75,344,42,28,34,310,35,29,49,207,39,31,07,312,29,1*6A
$GPGSV,3,3,10,32,36,259,41,36,00,000,37,1*6B
$GPGSV,2,1,06,06,15,040,30,11,29,077,31,24,23,143,28,25,75,344,27,8*6C
$GPGSV,2,2,06,28,34,310,26,32,36,259,30,8*69
$GAGSV,2,1,08,03,10,327,26,05,36,280,35,09,29,216,42,12,17,152,33,7*76
$GAGSV,2,2,08,24,53,289,39,26,19,043,41,31,64,054,41,33,35,095,38,7*79
$GAGSV,2,1,08,03,10,327,26,05,36,280,33,09,29,216,32,12,17,152,25,1*76
$GAGSV,2,2,08,24,53,289,29,26,19,043,31,31,64,054,23,33,35,095,27,1*73
$GBGSV,1,1,02,11,15,038,36,10,07,061,32,1*7E
$GBGSV,3,1,09,19,11,297,29,20,08,251,27,23,36,109,39,27,22,190,33,3*72
$GBGSV,3,2,09,28,57,146,43,37,82,004,33,38,07,062,35,43,34,052,40,3*77
$GBGSV,3,3,09,46,29,300,30,3*44
$GBGSV,3,1,09,19,11,297,24,20,08,251,21,23,36,109,27,27,22,190,29,5*7B
$GBGSV,3,2,09,28,57,146,30,37,82,004,27,38,07,062,24,43,34,052,27,5*71
$GBGSV,3,3,09,46,29,300,25,5*46
$GNGSA,A,3,06,11,12,24,25,28,29,31,32,,,,0.6,0.4,0.5,1*30
$PSSGR,GSA,A,3,06,11,24,25,28,32,,,,,,,0.6,0.4,0.5,1,8*4E
$GNGSA,A,3,03,05,09,12,24,26,31,33,,,,,0.6,0.4,0.5,3*38
$PSSGR,GSA,A,3,303,305,309,312,324,326,331,333,,,,,0.6,0.4,0.5,3,1*45
$GNGSA,A,3,10,11,19,20,23,27,28,37,38,43,46,,0.6,0.4,0.5,4*3C
$PSSGR,GSA,A,3,219,220,223,227,228,237,238,243,246,,,,0.6,0.4,0.5,4,5*76
$GNVTG,313.4,T,310.4,M,4.4,N,8.1,K,E*33
$GNDTM,W84,,0000.000000,N,00000.000000,E,0.000,W84*41
$GNRMC,085023.00,A,4338.405155,N,00701.860643,E,4.4,313.4,020424,3.0,E,E,V*5A
$GNGNS,085023.00,4338.405155,N,00701.860643,E,EEEEEE,28,0.4,197.1,49.7,,,V*21
$GNGGA,085023.00,4338.405155,N,00701.860643,E,6,12,0.4,197.1,M,49.7,M,,*7F
$PSMSG,magcal=PASS,bluesky=0*00
$GPGSV,3,1,10,06,15,040,39,11,29,077,42,12,56,062,43,24,23,143,33,1*64
$GPGSV,3,2,10,25,75,344,38,28,34,310,32,29,49,207,43,31,07,312,29,1*6D
$GPGSV,3,3,10,32,36,259,41,36,00,000,38,1*64
$GPGSV,2,1,06,06,15,040,31,11,29,077,30,24,23,143,29,25,75,344,25,8*6F
$GPGSV,2,2,06,28,34,310,25,32,36,259,29,8*62
$GAGSV,2,1,08,03,10,327,26,05,36,280,40,09,29,216,42,12,17,152,28,7*7E
$GAGSV,2,2,08,24,53,289,37,26,19,043,37,31,64,054,41,33,35,095,37,7*79
$GAGSV,2,1,08,03,10,327,26,05,36,280,30,09,29,216,35,12,17,152,26,1*71
$GAGSV,2,2,08,24,53,289,25,26,19,043,28,31,64,054,29,33,35,095,25,1*7F
$GBGSV,1,1,02,11,15,038,36,10,07,061,32,1*7E
$GBGSV,3,1,09,19,11,297,26,20,08,251,25,23,36,109,40,27,22,190,30,3*72
$GBGSV,3,2,09,28,57,146,40,37,82,004,38,38,07,062,35,43,34,052,41,3*7E
$GBGSV,3,3,09,46,29,300,30,3*44
$GBGSV,3,1,09,19,11,297,24,20,08,251,23,23,36,109,32,27,22,190,28,5*7C
$GBGSV,3,2,09,28,57,146,24,37,82,004,24,38,07,062,25,43,34,052,28,5*79
$GBGSV,3,3,09,46,29,300,22,5*41
$GNGSA,A,3,06,11,12,24,25,28,29,31,32,,,,0.6,0.4,0.5,1*30
$PSSGR,GSA,A,3,06,11,24,25,28,32,,,,,,,0.6,0.4,0.5,1,8*4E
$GNGSA,A,3,03,05,09,12,24,26,31,33,,,,,0.6,0.4,0.5,3*38
$PSSGR,GSA,A,3,303,305,309,312,324,326,331,333,,,,,0.6,0.4,0.5,3,1*45
$GNGSA,A,3,10,11,19,20,23,27,28,37,38,43,46,,0.6,0.4,0.5,4*3C
$PSSGR,GSA,A,3,219,223,227,228,237,238,243,246,,,,,0.6,0.4,0.5,4,5*46
$GNVTG,334.4,T,331.4,M,4.4,N,8.2,K,E*36
$GNDTM,W84,,0000.000000,N,00000.000000,E,0.000,W84*41
$GNRMC,085024.00,A,4338.406280,N,00701.859703,E,4.4,334.4,020424,3.0,E,E,V*5F
$GNGNS,085024.00,4338.406280,N,00701.859703,E,EEEEEE,28,0.4,197.2,49.7,,,V*22
$GNGGA,085024.00,4338.406280,N,00701.859703,E,6,12,0.4,197.2,M,49.7,M,,*7C
$PSMSG,magcal=PASS,bluesky=0*00
$GPGSV,3,1,10,06,15,040,39,11,29,077,44,12,56,062,45,24,23,143,36,1*61
$GPGSV,3,2,10,25,75,344,45,28,34,310,33,29,49,207,41,31,07,312,27,1*6A
$GPGSV,3,3,10,32,36,259,43,36,00,000,38,1*66
$GPGSV,2,1,06,06,15,040,29,11,29,077,31,24,23,143,31,25,75,344,30,8*6A
$GPGSV,2,2,06,28,34,310,26,32,36,259,30,8*69
$GAGSV,2,1,08,03,10,327,26,05,36,280,31,09,29,216,30,12,17,152,29,7*7C
$GAGSV,2,2,08,24,53,289,35,26,19,043,33,31,64,054,42,33,35,095,37,7*7C
$GAGSV,2,1,08,03,10,327,26,05,36,280,22,09,29,216,21,12,17,152,22,1*73
$GAGSV,2,2,08,24,53,289,24,26,19,043,21,31,64,054,28,33,35,095,27,1*74
$GBGSV,1,1,02,11,15,038,39,10,07,061,38,1*7B
$GBGSV,3,1,09,19,11,297,25,20,08,251,23,23,36,109,37,27,22,190,26,3*70
$GBGSV,3,2,09,28,57,146,36,37,82,004,37,38,07,062,40,43,34,052,37,3*73
$GBGSV,3,3,09,46,29,300,30,3*44
$GBGSV,3,1,09,19,11,297,24,20,08,251,23,23,36,109,23,27,22,190,23,5*77
$GBGSV,3,2,09,28,57,146,24,37,82,004,27,38,07,062,25,43,34,052,26,5*74
$GBGSV,3,3,09,46,29,300,22,5*41
$GNGSA,A,3,06,11,12,24,25,28,29,31,32,,,,0.6,0.4,0.5,1*30
$PSSGR,GSA,A,3,06,11,24,25,28,32,,,,,,,0.6,0.4,0.5,1,8*4E
$GNGSA,A,3,03,05,09,12,24,26,31,33,,,,,0.6,0.4,0.5,3*38
$PSSGR,GSA,A,3,303,305,309,312,324,326,331,333,,,,,0.6,0.4,0.5,3,1*45
$GNGSA,A,3,10,11,19,20,23,27,28,37,38,43,46,,0.6,0.4,0.5,4*3C
$PSSGR,GSA,A,3,219,223,227,228,237,238,243,246,,,,,0.6,0.4,0.5,4,5*46
$GNVTG,335.3,T,332.3,M,4.5,N,8.3,K,E*34
$GNDTM,W84,,0000.000000,N,00000.000000,E,0.000,W84*41
$GNRMC,085025.00,A,4338.407469,N,00701.858904,E,4.5,335.3,020424,3.0,E,E,V*51
$GNGNS,085025.00,4338.407469,N,00701.858904,E,EEEEEE,28,0.4,196.9,49.7,,,V*21
$GNGGA,085025.00,4338.407469,N,00701.858904,E,6,12,0.4,196.9,M,49.7,M,,*7F
$PSMSG,magcal=PASS,bluesky=0*00
$GPGSV,3,1,10,06,15,040,44,11,29,077,42,12,56,062,40,24,23,143,35,1*6B
$GPGSV,3,2,10,25,75,344,46,28,34,310,41,29,49,207,37,31,07,312,27,1*6D
$GPGSV,3,3,10,32,36,259,42,36,00,000,37,1*68
$GPGSV,2,1,06,06,15,040,36,11,29,077,32,24,23,143,29,25,75,344,35,8*6B
$GPGSV,2,2,06,28,34,310,33,32,36,259,31,8*6C
$GAGSV,2,1,08,03,10,327,26,05,36,280,29,09,29,216,31,12,17,152,28,7*75
$GAGSV,2,2,08,24,53,289,36,26,19,043,35,31,64,054,38,33,35,095,39,7*7A
$GAGSV,2,1,08,03,10,327,26,05,36,280,22,09,29,216,25,12,17,152,25,1*70
$GAGSV,2,2,08,24,53,289,23,26,19,043,26,31,64,054,23,33,35,095,28,1*70
$GBGSV,1,1,02,11,15,038,46,10,07,061,39,1*72
$GBGSV,3,1,09,19,11,297,24,20,08,251,25,23,36,109,37,27,22,190,26,3*77
$GBGSV,3,2,09,28,57,146,34,37,82,004,46,38,07,062,39,43,34,052,39,3*77
$GBGSV,3,3,09,46,29,300,32,3*46
$GBGSV,3,1,09,19,11,297,24,20,08,251,23,23,36,109,29,27,22,190,23,5*7D
$GBGSV,3,2,09,28,57,146,23,37,82,004,28,38,07,062,26,43,34,052,23,5*7A
$GBGSV,3,3,09,46,29,300,22,5*41
$GNGSA,A,3,06,11,12,24,25,28,29,31,32,,,,0.6,0.4,0.5,1*30
$PSSGR,GSA,A,3,06,11,24,25,28,32,,,,,,,0.6,0.4,0.5,1,8*4E
$GNGSA,A,3,03,05,09,12,24,26,31,33,,,,,0.6,0.4,0.5,3*38
$PSSGR,GSA,A,3,303,305,309,312,324,326,331,333,,,,,0.6,0.4,0.5,3,1*45
$GNGSA,A,3,10,11,19,20,23,27,28,37,38,43,46,,0.6,0.4,0.5,4*3C
$PSSGR,GSA,A,3,219,223,227,228,237,238,243,246,,,,,0.6,0.4,0.5,4,5*46
$GNVTG,349.6,T,346.6,M,4.6,N,8.5,K,E*39
$GNDTM,W84,,0000.000000,N,00000.000000,E,0.000,W84*41
$GNRMC,085026.00,A,4338.408866,N,00701.858660,E,4.6,349.6,020424,3.0,E,E,V*5E
$GNGNS,085026.00,4338.408866,N,00701.858660,E,EEEEEE,28,0.4,196.7,49.7,,,V*2D
$GNGGA,085026.00,4338.408866,N,00701.858660,E,6,12,0.4,196.7,M,49.7,M,,*73
$PSMSG,magcal=PASS,bluesky=0*00
$GPGSV,3,1,10,06,15,040,48,11,29,077,42,12,56,062,43,24,23,143,34,1*65
$GPGSV,3,2,10,25,75,344,47,28,34,310,45,29,49,207,39,31,07,312,28,1*69
$GPGSV,3,3,10,32,36,259,39,36,00,000,37,1*64
$GPGSV,2,1,06,06,15,040,36,11,29,077,32,24,23,143,28,25,75,344,35,8*6A
$GPGSV,2,2,06,28,34,310,35,32,36,259,27,8*6D
$GLGSV,3,1,09,10,24,096,37,02,24,296,33,22,18,174,34,12,30,307,43,1*79
$GLGSV,3,2,09,11,65,033,42,01,14,245,25,20,34,039,33,21,56,126,44,1*7F
$GLGSV,3,3,09,03,08,345,29,1*43
$GAGSV,3,1,10,03,10,327,23,05,36,280,32,09,29,216,30,10,03,170,28,7*74
$GAGSV,3,2,10,12,17,152,29,24,53,289,37,25,05,271,24,26,19,043,41,7*72
$GAGSV,3,3,10,31,64,054,37,33,35,095,38,7*76
$GAGSV,2,1,08,03,10,327,26,05,36,280,21,09,29,216,26,12,17,152,25,1*70
$GAGSV,2,2,08,24,53,289,27,26,19,043,30,31,64,054,29,33,35,095,26,1*77
$GBGSV,4,1,14,60,04,101,40,46,29,300,37,43,34,052,43,38,07,062,34,1*71
$GBGSV,4,2,14,37,82,004,46,28,57,146,41,27,22,190,29,23,36,109,38,1*72
$GBGSV,4,3,14,20,08,251,30,19,11,297,28,13,05,087,39,11,15,038,46,1*7A
$GBGSV,4,4,14,10,07,061,33,05,17,120,35,1*74
$GBGSV,3,1,09,19,11,297,26,20,08,251,26,23,36,109,35,27,22,190,24,3*76
$GBGSV,3,2,09,28,57,146,39,37,82,004,42,38,07,062,32,43,34,052,40,3*7B
$GBGSV,3,3,09,46,29,300,36,3*42
$GBGSV,3,1,09,19,11,297,20,20,08,251,23,23,36,109,26,27,22,190,23,5*76
$GBGSV,3,2,09,28,57,146,29,37,82,004,31,38,07,062,24,43,34,052,26,5*7F
$GBGSV,3,3,09,46,29,300,21,5*42
$GNGSA,A,3,06,11,12,24,25,28,29,31,32,,,,0.5,0.3,0.4,1*35
$PSSGR,GSA,A,3,06,11,24,25,28,32,,,,,,,0.5,0.3,0.4,1,8*4B
$GNGSA,A,3,65,66,67,74,75,76,84,85,86,,,,0.5,0.3,0.4,2*3D
$GNGSA,A,3,03,05,09,12,24,26,31,33,,,,,0.5,0.3,0.4,3*3D
$PSSGR,GSA,A,3,305,309,312,324,326,331,333,,,,,,0.5,0.3,0.4,3,1*70
$GNGSA,A,3,05,10,11,19,20,23,27,28,37,38,43,46,0.5,0.3,0.4,4*3C
$PSSGR,GSA,A,3,219,223,227,228,237,238,243,246,,,,,0.5,0.3,0.4,4,5*43
$GNVTG,356.9,T,353.9,M,4.4,N,8.2,K,E*36
$GNDTM,W84,,0000.000000,N,00000.000000,E,0.000,W84*41
$GNRMC,085027.00,A,4338.410279,N,00701.858678,E,4.4,356.9,020424,3.0,E,E,V*58
$GNGNS,085027.00,4338.410279,N,00701.858678,E,EEEEEE,38,0.3,196.7,49.7,,,V*2E
$GNGGA,085027.00,4338.410279,N,00701.858678,E,6,12,0.3,196.7,M,49.7,M,,*71
$PSMSG,magcal=PASS,bluesky=0*00
$GPGSV,3,1,10,06,15,040,43,11,29,077,39,12,56,062,43,24,23,143,36,1*60
$GPGSV,3,2,10,25,75,344,48,28,34,310,44,29,49,207,37,31,07,312,29,1*68
$GPGSV,3,3,10,32,36,259,40,36,00,000,38,1*65
$GPGSV,2,1,06,06,15,040,35,11,29,077,26,24,23,143,30,25,75,344,35,8*65
$GPGSV,2,2,06,28,34,310,33,32,36,259,31,8*6C
$GLGSV,3,1,09,10,24,096,36,02,24,296,36,22,18,174,31,12,30,307,42,1*79
$GLGSV,3,2,09,11,65,033,43,01,14,245,26,20,34,039,31,21,56,126,41,1*7A
$GLGSV,3,3,09,03,08,345,29,1*43
$GAGSV,3,1,10,03,10,327,23,05,36,280,30,09,29,216,30,10,03,170,29,7*77
$GAGSV,3,2,10,12,17,152,29,24,53,289,41,25,05,271,24,26,19,043,41,7*73
$GAGSV,3,3,10,31,64,054,36,33,35,095,36,7*79
$GAGSV,2,1,08,03,10,327,26,05,36,280,23,09,29,216,24,12,17,152,24,1*71
$GAGSV,2,2,08,24,53,289,32,26,19,043,34,31,64,054,29,33,35,095,24,1*75
$GBGSV,4,1,14,60,04,101,39,46,29,300,40,43,34,052,46,38,07,062,34,1*7A
$GBGSV,4,2,14,37,82,004,47,28,57,146,43,27,22,190,30,23,36,109,41,1*77
$GBGSV,4,3,14,20,08,251,28,19,11,297,33,13,05,087,37,11,15,038,41,1*70
$GBGSV,4,4,14,10,07,061,30,05,17,120,36,1*74
$GBGSV,3,1,09,19,11,297,30,20,08,251,26,23,36,109,39,27,22,190,26,3*7F
$GBGSV,3,2,09,28,57,146,41,37,82,004,45,38,07,062,30,43,34,052,43,3*72
$GBGSV,3,3,09,46,29,300,39,3*4D
$GBGSV,3,1,09,19,11,297,23,20,08,251,23,23,36,109,28,27,22,190,23,5*7B
$GBGSV,3,2,09,28,57,146,29,37,82,004,31,38,07,062,24,43,34,052,30,5*78
$GBGSV,3,3,09,46,29,300,29,5*4A
$GNGSA,A,3,06,11,12,24,25,28,29,31,32,,,,0.5,0.3,0.4,1*35
$PSSGR,GSA,A,3,06,11,24,25,28,32,,,,,,,0.5,0.3,0.4,1,8*4B
$GNGSA,A,3,65,66,67,74,75,76,84,85,86,,,,0.5,0.3,0.4,2*3D
$GNGSA,A,3,03,05,09,12,24,26,31,33,,,,,0.5,0.3,0.4,3*3D
$PSSGR,GSA,A,3,305,309,312,324,326,331,333,,,,,,0.5,0.3,0.4,3,1*70
$GNGSA,A,3,05,10,11,19,20,23,27,28,37,38,43,46,0.5,0.3,0.4,4*3C
$PSSGR,GSA,A,3,223,227,228,237,238,243,246,,,,,,0.5,0.3,0.4,4,5*79
$GNVTG,7.9,T,4.9,M,4.4,N,8.2,K,E*30
$GNDTM,W84,,0000.000000,N,00000.000000,E,0.000,W84*41
$GNRMC,085028.00,A,4338.411692,N,00701.859012,E,4.4,7.9,020424,3.0,E,E,V*5B
$GNGNS,085028.00,4338.411692,N,00701.859012,E,EEEEEE,38,0.3,196.8,49.7,,,V*25
$GNGGA,085028.00,4338.411692,N,00701.859012,E,6,12,0.3,196.8,M,49.7,M,,*7A
$PSMSG,magcal=PASS,bluesky=0*00

HG Sport 3

Edited by - Rogerwii on 02/04/2024 11:04:50
Go to Top of Page

brunotl
Pterodattilo

France
1111 Posts

Posted - 02/04/2024 :  16:37:09  Show Profile  Reply with Quote
quote:
Originally posted by Rogerwii

oops ok, thanks for your help!

$GNGGA,084949.00,4338.385257,N,00701.858747,E,6,12,0.3,197.1,M,49.7,M,,*7C




most time, Fix Quality send by the GPS is "6" -> "Estimated" ..
only Quality between 1 and 5 are valid.

Fix quality :
0 = invalid
1 = GPS fix (SPS)
2 = DGPS fix
3 = PPS fix
4 = Real Time Kinematic
5 = Float RTK
6 = estimated (dead reckoning) (2.3 feature)
7 = Manual input mode
8 = Simulation mode

maybe something is wrong in device setting ( location or battery or something else ... )


Edit :
could be :
- a sky visiblity problem -> test outside with clear sky visiblity
- a device feature to save battery life ( another samsung bad feature ?? )

Edited by - brunotl on 02/04/2024 18:11:12
Go to Top of Page

Rogerwii
Pulcino

France
39 Posts

Posted - 02/04/2024 :  23:25:44  Show Profile  Reply with Quote
Thanks for your help, the problem remains even outside with all kinds of battery savings disabled.

But the position works and the speed aswell, it's just the NO GPS FIX message that is annoying!

HG Sport 3
Go to Top of Page

brunotl
Pterodattilo

France
1111 Posts

Posted - 03/04/2024 :  20:54:18  Show Profile  Reply with Quote
you can try to activate "force full GNSS measurement" in develloper settings ...

more ifo about that here :
https://barbeau.medium.com/gnss-interrupted-the-hidden-android-setting-you-need-to-know-d812d28a3821
Go to Top of Page

Rogerwii
Pulcino

France
39 Posts

Posted - 25/04/2024 :  12:15:45  Show Profile  Reply with Quote
Thanks for your help, I've tried it with hope but it doesn't make a difference.

After starting the app there is no problem if I stay static, but as soon as I move the NO VALID FIX message appears after about 3secs

HG Sport 3
Go to Top of Page
  Previous Topic Topic Next Topic  
 New Topic  Reply to Topic
Jump To:
PostFrontal Forum © PostFrontal - La community del Volo a Vela Go To Top Of Page
This page was generated in 0.27 seconds. Snitz Forums 2000

Since 2006, owned and maintained by PostFrontal S.A.S. di Giuliano Golfieri & c. - VAT ID: IT05264240960
THIS WEBSITE ONLY USES FUNCTIONAL COOKIES
Privacy & Cookie Policy